Observation data for Romero 11SSW on 06/15/2019      Previous  Date       Current Mesonet Observations  Soil Data  Daily Summary Page  Observations in Plain Language
KBR1 150500Z 33009KT 21/10 A2978 RMK A01 T02080098  RH  050%=      5-min Rain = 0
KBR1 150501Z 33010KT 21/10 A2978 RMK A01 T02060099  RH  050%=      5-min Rain = 0
KBR1 150502Z 33011KT 21/10 A2978 RMK A01 T02050101  RH  051%=      5-min Rain = 0
KBR1 150503Z 34012KT 21/10 A2978 RMK A01 T02050102  RH  051%=      5-min Rain = 0
KBR1 150504Z 35013KT 21/10 A2978 RMK A01 T02070104  RH  051%=      5-min Rain = 0
KBR1 150505Z 34014KT 21/11 A2978 RMK A01 T02110106  RH  051%=      5-min Rain = 0
KBR1 150506Z 33012KT 22/11 A2978 RMK A01 T02160107  RH  050%=      5-min Rain = 0
KBR1 150507Z 33011KT 22/11 A2978 RMK A01 T02180107  RH  049%=      5-min Rain = 0
KBR1 150508Z 33012KT 22/11 A2979 RMK A01 T02170108  RH  050%=      5-min Rain = 0
KBR1 150509Z 33013KT 22/11 A2979 RMK A01 T02160107  RH  050%=      5-min Rain = 0
KBR1 150510Z 33011KT 22/11 A2979 RMK A01 T02150107  RH  050%=      5-min Rain = 0
KBR1 150511Z 33012KT 22/11 A2979 RMK A01 T02150107  RH  050%=      5-min Rain = 0
KBR1 150512Z 34012KT 22/11 A2979 RMK A01 T02160108  RH  050%=      5-min Rain = 0
KBR1 150513Z 33011KT 22/11 A2979 RMK A01 T02160107  RH  050%=      5-min Rain = 0
KBR1 150514Z 34011KT 22/11 A2979 RMK A01 T02160108  RH  050%=      5-min Rain = 0
KBR1 150515Z 34010KT 22/11 A2979 RMK A01 T02150109  RH  051%=      5-min Rain = 0
KBR1 150516Z 34010KT 21/11 A2979 RMK A01 T02130109  RH  051%=      5-min Rain = 0
KBR1 150517Z 33010KT 21/11 A2979 RMK A01 T02120109  RH  052%=      5-min Rain = 0
KBR1 150518Z 34011KT 21/11 A2979 RMK A01 T02110109  RH  052%=      5-min Rain = 0
KBR1 150519Z 34010KT 21/11 A2979 RMK A01 T02110109  RH  052%=      5-min Rain = 0
KBR1 150520Z 34011KT 21/11 A2979 RMK A01 T02110109  RH  052%=      5-min Rain = 0
KBR1 150521Z 34011KT 21/11 A2979 RMK A01 T02110109  RH  052%=      5-min Rain = 0
KBR1 150522Z 33010KT 21/11 A2979 RMK A01 T02110110  RH  052%=      5-min Rain = 0
KBR1 150523Z 34009KT 21/11 A2979 RMK A01 T02100110  RH  053%=      5-min Rain = 0
KBR1 150524Z 34008KT 21/11 A2979 RMK A01 T02080111  RH  054%=      5-min Rain = 0
KBR1 150525Z 34008KT 21/11 A2979 RMK A01 T02060111  RH  054%=      5-min Rain = 0
KBR1 150526Z 34009KT 21/11 A2979 RMK A01 T02050112  RH  055%=      5-min Rain = 0
KBR1 150527Z 34010KT 20/11 A2979 RMK A01 T02040112  RH  055%=      5-min Rain = 0
KBR1 150528Z 35008KT 20/11 A2979 RMK A01 T02030112  RH  055%=      5-min Rain = 0
KBR1 150529Z 34009KT 20/11 A2979 RMK A01 T02030111  RH  056%=      5-min Rain = 0
KBR1 150530Z 34009KT 20/11 A2979 RMK A01 T02030111  RH  055%=      5-min Rain = 0
KBR1 150531Z 34009KT 20/11 A2979 RMK A01 T02030110  RH  055%=      5-min Rain = 0
KBR1 150532Z 34010KT 20/11 A2979 RMK A01 T02030110  RH  055%=      5-min Rain = 0
KBR1 150533Z 34009KT 20/11 A2979 RMK A01 T02040110  RH  055%=      5-min Rain = 0
KBR1 150534Z 35010KT 20/11 A298 RMK A01 T02030111  RH  055%=      5-min Rain = 0
KBR1 150535Z 35010KT 20/11 A298 RMK A01 T02030110  RH  055%=      5-min Rain = 0
KBR1 150536Z 35011KT 20/11 A298 RMK A01 T02030110  RH  055%=      5-min Rain = 0
KBR1 150537Z 34012KT 20/11 A298 RMK A01 T02030109  RH  055%=      5-min Rain = 0
KBR1 150538Z 34010KT 20/11 A298 RMK A01 T02030108  RH  054%=      5-min Rain = 0
KBR1 150539Z 34010KT 20/11 A298 RMK A01 T02030109  RH  054%=      5-min Rain = 0
KBR1 150540Z 35010KT 20/11 A298 RMK A01 T02030109  RH  055%=      5-min Rain = 0
KBR1 150541Z 35012KT 20/11 A298 RMK A01 T02030109  RH  055%=      5-min Rain = 0
KBR1 150542Z 35012KT 20/11 A298 RMK A01 T02020107  RH  054%=      5-min Rain = 0
KBR1 150543Z 34012KT 20/11 A298 RMK A01 T02030106  RH  054%=      5-min Rain = 0
KBR1 150544Z 34013KT 20/11 A298 RMK A01 T02030106  RH  054%=      5-min Rain = 0
KBR1 150545Z 35013KT 20/11 A298 RMK A01 T02040105  RH  053%=      5-min Rain = 0
KBR1 150546Z 35012KT 20/11 A298 RMK A01 T02040105  RH  053%=      5-min Rain = 0
KBR1 150547Z 35012KT 20/10 A298 RMK A01 T02040104  RH  053%=      5-min Rain = 0
KBR1 150548Z 34012KT 20/11 A298 RMK A01 T02040105  RH  053%=      5-min Rain = 0
KBR1 150549Z 34013KT 20/10 A298 RMK A01 T02040104  RH  053%=      5-min Rain = 0
KBR1 150550Z 34011KT 20/10 A298 RMK A01 T02040104  RH  053%=      5-min Rain = 0
KBR1 150551Z 34011KT 20/11 A298 RMK A01 T02040105  RH  053%=      5-min Rain = 0
KBR1 150552Z 34009KT 20/11 A298 RMK A01 T02030105  RH  053%=      5-min Rain = 0
KBR1 150553Z 34011KT 20/10 A298 RMK A01 T02010104  RH  054%=      5-min Rain = 0
KBR1 150554Z 34010KT 20/10 A298 RMK A01 T02010104  RH  054%=      5-min Rain = 0
KBR1 150555Z 34010KT 20/10 A298 RMK A01 T02010104  RH  054%=      5-min Rain = 0
KBR1 150556Z 33010KT 20/10 A298 RMK A01 T02010104  RH  054%=      5-min Rain = 0
KBR1 150557Z 34010KT 20/10 A298 RMK A01 T02000104  RH  054%=      5-min Rain = 0
KBR1 150558Z 34011KT 20/10 A2981 RMK A01 T01990104  RH  054%=      5-min Rain = 0
KBR1 150559Z 34009KT 20/10 A2981 RMK A01 T01990104  RH  054%=      5-min Rain = 0
KBR1 150600Z 34010KT 20/10 A2981 RMK A01 T01990104  RH  054%=      5-min Rain = 0
KBR1 150601Z 34010KT 20/10 A2981 RMK A01 T01980104  RH  054%=      5-min Rain = 0
KBR1 150602Z 34011KT 20/10 A2981 RMK A01 T01990104  RH  054%=      5-min Rain = 0
KBR1 150603Z 34012KT 20/10 A2981 RMK A01 T01990104  RH  054%=      5-min Rain = 0
KBR1 150604Z 34013KT 20/10 A2981 RMK A01 T01980104  RH  054%=      5-min Rain = 0
KBR1 150605Z 34012KT 20/10 A2981 RMK A01 T01990104  RH  054%=      5-min Rain = 0
KBR1 150606Z 34010KT 20/10 A2981 RMK A01 T01980104  RH  054%=      5-min Rain = 0
KBR1 150607Z 35013KT 20/10 A2981 RMK A01 T01980104  RH  054%=      5-min Rain = 0
KBR1 150608Z 34012KT 20/10 A2981 RMK A01 T01990104  RH  054%=      5-min Rain = 0
KBR1 150609Z 35009KT 20/11 A2981 RMK A01 T01990105  RH  055%=      5-min Rain = 0
KBR1 150610Z 35009KT 20/11 A2981 RMK A01 T01980105  RH  055%=      5-min Rain = 0
KBR1 150611Z 34009KT 20/11 A2981 RMK A01 T01970105  RH  055%=      5-min Rain = 0
KBR1 150612Z 34009KT 20/11 A2981 RMK A01 T01960105  RH  056%=      5-min Rain = 0
KBR1 150613Z 34008KT 20/11 A2981 RMK A01 T01950105  RH  056%=      5-min Rain = 0
KBR1 150614Z 35007KT 20/11 A2981 RMK A01 T01950105  RH  056%=      5-min Rain = 0
KBR1 150615Z 34008KT 20/11 A2981 RMK A01 T01950106  RH  056%=      5-min Rain = 0
KBR1 150616Z 34008KT 19/11 A2981 RMK A01 T01940106  RH  056%=      5-min Rain = 0
KBR1 150617Z 34007KT 19/11 A2982 RMK A01 T01940106  RH  057%=      5-min Rain = 0
KBR1 150618Z 34008KT 19/11 A2982 RMK A01 T01930106  RH  057%=      5-min Rain = 0
KBR1 150619Z 34008KT 19/11 A2982 RMK A01 T01930106  RH  057%=      5-min Rain = 0
KBR1 150620Z 34007KT 19/11 A2982 RMK A01 T01920106  RH  057%=      5-min Rain = 0
KBR1 150621Z 34008KT 19/11 A2982 RMK A01 T01920107  RH  057%=      5-min Rain = 0
KBR1 150622Z 34006KT 19/11 A2982 RMK A01 T01920108  RH  058%=      5-min Rain = 0
KBR1 150623Z 34007KT 19/11 A2982 RMK A01 T01910108  RH  058%=      5-min Rain = 0
KBR1 150624Z 34006KT 19/11 A2982 RMK A01 T01910107  RH  058%=      5-min Rain = 0
KBR1 150625Z 35008KT 19/11 A2982 RMK A01 T01910107  RH  058%=      5-min Rain = 0
KBR1 150626Z 34009KT 19/11 A2982 RMK A01 T01910108  RH  058%=      5-min Rain = 0
KBR1 150627Z 34007KT 19/11 A2982 RMK A01 T01920108  RH  058%=      5-min Rain = 0
KBR1 150628Z 34008KT 19/11 A2982 RMK A01 T01910109  RH  059%=      5-min Rain = 0
KBR1 150629Z 34008KT 19/11 A2982 RMK A01 T01900109  RH  060%=      5-min Rain = 0
KBR1 150630Z 34009KT 19/11 A2982 RMK A01 T01880110  RH  060%=      5-min Rain = 0
KBR1 150631Z 34010KT 19/11 A2982 RMK A01 T01870110  RH  061%=      5-min Rain = 0
KBR1 150632Z 34011KT 19/11 A2982 RMK A01 T01860110  RH  061%=      5-min Rain = 0
KBR1 150633Z 34010KT 19/11 A2982 RMK A01 T01870111  RH  061%=      5-min Rain = 0
KBR1 150634Z 34011KT 19/11 A2981 RMK A01 T01870111  RH  061%=      5-min Rain = 0
KBR1 150635Z 34010KT 19/11 A2981 RMK A01 T01880112  RH  061%=      5-min Rain = 0
KBR1 150636Z 34011KT 19/11 A2981 RMK A01 T01870113  RH  062%=      5-min Rain = 0
KBR1 150637Z 34010KT 19/11 A2981 RMK A01 T01860113  RH  063%=      5-min Rain = 0
KBR1 150638Z 34011KT 19/11 A2981 RMK A01 T01850114  RH  063%=      5-min Rain = 0
KBR1 150639Z 34012KT 18/11 A2981 RMK A01 T01840114  RH  064%=      5-min Rain = 0
KBR1 150640Z 34012KT 18/11 A2981 RMK A01 T01840114  RH  064%=      5-min Rain = 0
KBR1 150641Z 34011KT 18/12 A2981 RMK A01 T01840115  RH  064%=      5-min Rain = 0
KBR1 150642Z 34011KT 18/11 A2981 RMK A01 T01830114  RH  064%=      5-min Rain = 0
KBR1 150643Z 35011KT 18/12 A2981 RMK A01 T01830115  RH  064%=      5-min Rain = 0
KBR1 150644Z 35012KT 18/12 A2981 RMK A01 T01820115  RH  065%=      5-min Rain = 0
KBR1 150645Z 35010KT 18/12 A2982 RMK A01 T01820115  RH  065%=      5-min Rain = 0
KBR1 150646Z 35010KT 18/12 A2982 RMK A01 T01820116  RH  065%=      5-min Rain = 0
KBR1 150647Z 35011KT 18/12 A2982 RMK A01 T01810116  RH  066%=      5-min Rain = 0
KBR1 150648Z 35010KT 18/12 A2982 RMK A01 T01810116  RH  066%=      5-min Rain = 0
KBR1 150649Z 36010KT 18/12 A2982 RMK A01 T01800116  RH  066%=      5-min Rain = 0
KBR1 150650Z 00009KT 18/12 A2981 RMK A01 T01790116  RH  067%=      5-min Rain = 0
KBR1 150651Z 36011KT 18/12 A2981 RMK A01 T01790117  RH  067%=      5-min Rain = 0
KBR1 150652Z 00011KT 18/12 A2982 RMK A01 T01790117  RH  067%=      5-min Rain = 0
KBR1 150653Z 00010KT 18/12 A2981 RMK A01 T01790117  RH  067%=      5-min Rain = 0
KBR1 150654Z 00011KT 18/12 A2981 RMK A01 T01790117  RH  067%=      5-min Rain = 0
KBR1 150655Z 00013KT 18/12 A2981 RMK A01 T01790117  RH  067%=      5-min Rain = 0
KBR1 150656Z 00012KT 18/12 A2981 RMK A01 T01800117  RH  067%=      5-min Rain = 0
KBR1 150657Z 36012KT 18/12 A2981 RMK A01 T01800117  RH  067%=      5-min Rain = 0
KBR1 150658Z 01012KT 18/12 A2981 RMK A01 T01800117  RH  067%=      5-min Rain = 0
KBR1 150659Z 00013KT 18/12 A2981 RMK A01 T01800118  RH  067%=      5-min Rain = 0
KBR1 150700Z 00012KT 18/12 A2981 RMK A01 T01800118  RH  067%=      5-min Rain = 0
KBR1 150701Z 00011KT 18/12 A2981 RMK A01 T01800118  RH  067%=      5-min Rain = 0
KBR1 150702Z 36010KT 18/12 A2981 RMK A01 T01800118  RH  067%=      5-min Rain = 0
KBR1 150703Z 36010KT 18/12 A2981 RMK A01 T01800118  RH  067%=      5-min Rain = 0
KBR1 150704Z 00009KT 18/12 A2981 RMK A01 T01790118  RH  067%=      5-min Rain = 0
KBR1 150705Z 35009KT 18/12 A2981 RMK A01 T01790118  RH  068%=      5-min Rain = 0
KBR1 150706Z 35008KT 18/12 A2982 RMK A01 T01780119  RH  068%=      5-min Rain = 0
KBR1 150707Z 35009KT 18/12 A2982 RMK A01 T01780119  RH  068%=      5-min Rain = 0
KBR1 150708Z 35008KT 18/12 A2982 RMK A01 T01780119  RH  068%=      5-min Rain = 0
KBR1 150709Z 35007KT 18/12 A2982 RMK A01 T01770119  RH  068%=      5-min Rain = 0
KBR1 150710Z 36007KT 18/12 A2982 RMK A01 T01770119  RH  069%=      5-min Rain = 0
KBR1 150711Z 35006KT 18/12 A2982 RMK A01 T01760119  RH  069%=      5-min Rain = 0
KBR1 150712Z 34006KT 18/12 A2982 RMK A01 T01750119  RH  070%=      5-min Rain = 0
KBR1 150713Z 34007KT 17/12 A2982 RMK A01 T01740119  RH  070%=      5-min Rain = 0
KBR1 150714Z 35008KT 17/12 A2982 RMK A01 T01730119  RH  071%=      5-min Rain = 0
KBR1 150715Z 35009KT 17/12 A2982 RMK A01 T01730119  RH  071%=      5-min Rain = 0
KBR1 150716Z 35009KT 17/12 A2982 RMK A01 T01720119  RH  071%=      5-min Rain = 0
KBR1 150717Z 35010KT 17/12 A2982 RMK A01 T01720120  RH  071%=      5-min Rain = 0
KBR1 150718Z 35010KT 17/12 A2982 RMK A01 T01720119  RH  071%=      5-min Rain = 0
KBR1 150719Z 36010KT 17/12 A2982 RMK A01 T01720120  RH  071%=      5-min Rain = 0
KBR1 150720Z 36011KT 17/12 A2982 RMK A01 T01710120  RH  072%=      5-min Rain = 0
KBR1 150721Z 36011KT 17/12 A2982 RMK A01 T01710120  RH  072%=      5-min Rain = 0
KBR1 150722Z 36010KT 17/12 A2982 RMK A01 T01700120  RH  072%=      5-min Rain = 0
KBR1 150723Z 35010KT 17/12 A2982 RMK A01 T01710120  RH  072%=      5-min Rain = 0
KBR1 150724Z 35009KT 17/12 A2982 RMK A01 T01700120  RH  072%=      5-min Rain = 0
KBR1 150725Z 36009KT 17/12 A2982 RMK A01 T01690120  RH  073%=      5-min Rain = 0
KBR1 150726Z 36009KT 17/12 A2982 RMK A01 T01690120  RH  073%=      5-min Rain = 0
KBR1 150727Z 36009KT 17/12 A2982 RMK A01 T01690121  RH  073%=      5-min Rain = 0
KBR1 150728Z 35010KT 17/12 A2982 RMK A01 T01690121  RH  073%=      5-min Rain = 0
KBR1 150729Z 35010KT 17/12 A2982 RMK A01 T01680121  RH  073%=      5-min Rain = 0
KBR1 150730Z 36009KT 17/12 A2982 RMK A01 T01680121  RH  074%=      5-min Rain = 0
KBR1 150731Z 35010KT 17/12 A2982 RMK A01 T01670121  RH  074%=      5-min Rain = 0
KBR1 150732Z 35010KT 17/12 A2982 RMK A01 T01670120  RH  074%=      5-min Rain = 0
KBR1 150733Z 00011KT 17/12 A2982 RMK A01 T01670121  RH  074%=      5-min Rain = 0
KBR1 150734Z 36011KT 17/12 A2982 RMK A01 T01670121  RH  074%=      5-min Rain = 0
KBR1 150735Z 36010KT 17/12 A2982 RMK A01 T01660121  RH  075%=      5-min Rain = 0
KBR1 150736Z 36011KT 17/12 A2982 RMK A01 T01660121  RH  075%=      5-min Rain = 0
KBR1 150737Z 36011KT 17/12 A2982 RMK A01 T01660121  RH  075%=      5-min Rain = 0
KBR1 150738Z 35010KT 17/12 A2982 RMK A01 T01650121  RH  075%=      5-min Rain = 0
KBR1 150739Z 35011KT 17/12 A2982 RMK A01 T01650121  RH  075%=      5-min Rain = 0
KBR1 150740Z 35011KT 16/12 A2982 RMK A01 T01640121  RH  075%=      5-min Rain = 0
KBR1 150741Z 35012KT 16/12 A2982 RMK A01 T01640121  RH  076%=      5-min Rain = 0
KBR1 150742Z 35012KT 16/12 A2982 RMK A01 T01640121  RH  076%=      5-min Rain = 0
KBR1 150743Z 35010KT 16/12 A2982 RMK A01 T01640121  RH  075%=      5-min Rain = 0
KBR1 150744Z 35009KT 16/12 A2982 RMK A01 T01640120  RH  075%=      5-min Rain = 0
KBR1 150745Z 35009KT 16/12 A2982 RMK A01 T01630121  RH  076%=      5-min Rain = 0
KBR1 150746Z 35010KT 16/12 A2982 RMK A01 T01630121  RH  076%=      5-min Rain = 0
KBR1 150747Z 35010KT 16/12 A2982 RMK A01 T01630121  RH  076%=      5-min Rain = 0
KBR1 150748Z 35011KT 16/12 A2982 RMK A01 T01640121  RH  075%=      5-min Rain = 0
KBR1 150749Z 35011KT 16/12 A2982 RMK A01 T01640121  RH  075%=      5-min Rain = 0
KBR1 150750Z 35010KT 17/12 A2982 RMK A01 T01650120  RH  075%=      5-min Rain = 0
KBR1 150751Z 35009KT 17/12 A2982 RMK A01 T01660121  RH  075%=      5-min Rain = 0
KBR1 150752Z 36011KT 17/12 A2982 RMK A01 T01660121  RH  075%=      5-min Rain = 0
KBR1 150753Z 36009KT 17/12 A2982 RMK A01 T01650121  RH  075%=      5-min Rain = 0
KBR1 150754Z 00010KT 17/12 A2982 RMK A01 T01650121  RH  075%=      5-min Rain = 0
KBR1 150755Z 00011KT 17/12 A2982 RMK A01 T01650121  RH  075%=      5-min Rain = 0
KBR1 150756Z 00012KT 17/12 A2982 RMK A01 T01650121  RH  075%=      5-min Rain = 0
KBR1 150757Z 00012KT 17/12 A2982 RMK A01 T01650120  RH  075%=      5-min Rain = 0
KBR1 150758Z 00013KT 17/12 A2982 RMK A01 T01660121  RH  075%=      5-min Rain = 0
KBR1 150759Z 36012KT 17/12 A2982 RMK A01 T01650120  RH  075%=      5-min Rain = 0
KBR1 150800Z 00012KT 17/12 A2982 RMK A01 T01660121  RH  075%=      5-min Rain = 0
KBR1 150801Z 01013KT 17/12 A2982 RMK A01 T01660121  RH  074%=      5-min Rain = 0
KBR1 150802Z 01012KT 17/12 A2982 RMK A01 T01670121  RH  074%=      5-min Rain = 0
KBR1 150803Z 01012KT 17/12 A2982 RMK A01 T01670120  RH  074%=      5-min Rain = 0
KBR1 150804Z 01013KT 17/12 A2982 RMK A01 T01670120  RH  074%=      5-min Rain = 0
KBR1 150805Z 01013KT 17/12 A2982 RMK A01 T01660121  RH  074%=      5-min Rain = 0
KBR1 150806Z 00014KT 17/12 A2982 RMK A01 T01660120  RH  074%=      5-min Rain = 0
KBR1 150807Z 00013KT 17/12 A2982 RMK A01 T01660121  RH  074%=      5-min Rain = 0
KBR1 150808Z 01014KT 17/12 A2982 RMK A01 T01660120  RH  074%=      5-min Rain = 0
KBR1 150809Z 36014KT 17/12 A2982 RMK A01 T01660120  RH  074%=      5-min Rain = 0
KBR1 150810Z 00013KT 17/12 A2982 RMK A01 T01660121  RH  075%=      5-min Rain = 0
KBR1 150811Z 36012KT 17/12 A2982 RMK A01 T01650121  RH  075%=      5-min Rain = 0
KBR1 150812Z 36014KT 17/12 A2982 RMK A01 T01650121  RH  075%=      5-min Rain = 0
KBR1 150813Z 36015KT 16/12 A2982 RMK A01 T01640120  RH  075%=      5-min Rain = 0
KBR1 150814Z 36013KT 17/12 A2982 RMK A01 T01650120  RH  075%=      5-min Rain = 0
KBR1 150815Z 35012KT 17/12 A2982 RMK A01 T01650120  RH  075%=      5-min Rain = 0
KBR1 150816Z 35011KT 16/12 A2982 RMK A01 T01640120  RH  075%=      5-min Rain = 0
KBR1 150817Z 36011KT 16/12 A2982 RMK A01 T01640121  RH  076%=      5-min Rain = 0
KBR1 150818Z 00011KT 16/12 A2982 RMK A01 T01630120  RH  076%=      5-min Rain = 0
KBR1 150819Z 36012KT 16/12 A2982 RMK A01 T01630120  RH  076%=      5-min Rain = 0
KBR1 150820Z 36011KT 16/12 A2982 RMK A01 T01640120  RH  075%=      5-min Rain = 0
KBR1 150821Z 35010KT 16/12 A2982 RMK A01 T01640120  RH  075%=      5-min Rain = 0
KBR1 150822Z 35009KT 16/12 A2982 RMK A01 T01640120  RH  075%=      5-min Rain = 0
KBR1 150823Z 36009KT 16/12 A2983 RMK A01 T01640120  RH  075%=      5-min Rain = 0
KBR1 150824Z 00010KT 16/12 A2982 RMK A01 T01640120  RH  075%=      5-min Rain = 0
KBR1 150825Z 00010KT 16/12 A2982 RMK A01 T01640120  RH  075%=      5-min Rain = 0
KBR1 150826Z 01009KT 16/12 A2982 RMK A01 T01640120  RH  075%=      5-min Rain = 0
KBR1 150827Z 00010KT 16/12 A2982 RMK A01 T01640120  RH  075%=      5-min Rain = 0
KBR1 150828Z 00010KT 16/12 A2982 RMK A01 T01630120  RH  075%=      5-min Rain = 0
KBR1 150829Z 36010KT 16/12 A2982 RMK A01 T01640120  RH  075%=      5-min Rain = 0
KBR1 150830Z 36009KT 17/12 A2982 RMK A01 T01650120  RH  075%=      5-min Rain = 0
KBR1 150831Z 36010KT 17/12 A2982 RMK A01 T01650120  RH  075%=      5-min Rain = 0
KBR1 150832Z 36010KT 17/12 A2982 RMK A01 T01650120  RH  075%=      5-min Rain = 0
KBR1 150833Z 36010KT 17/12 A2982 RMK A01 T01650120  RH  075%=      5-min Rain = 0
KBR1 150834Z 35010KT 17/12 A2983 RMK A01 T01650120  RH  075%=      5-min Rain = 0
KBR1 150835Z 36011KT 17/12 A2983 RMK A01 T01650119  RH  075%=      5-min Rain = 0
KBR1 150836Z 35011KT 17/12 A2983 RMK A01 T01650119  RH  075%=      5-min Rain = 0
KBR1 150837Z 35010KT 17/12 A2983 RMK A01 T01650119  RH  074%=      5-min Rain = 0
KBR1 150838Z 36011KT 17/12 A2983 RMK A01 T01650120  RH  074%=      5-min Rain = 0
KBR1 150839Z 35010KT 17/12 A2983 RMK A01 T01650120  RH  075%=      5-min Rain = 0
KBR1 150840Z 35010KT 17/12 A2983 RMK A01 T01650120  RH  075%=      5-min Rain = 0
KBR1 150841Z 35011KT 16/12 A2983 RMK A01 T01640120  RH  075%=      5-min Rain = 0
KBR1 150842Z 35010KT 16/12 A2983 RMK A01 T01640119  RH  075%=      5-min Rain = 0
KBR1 150843Z 35011KT 16/12 A2983 RMK A01 T01640120  RH  075%=      5-min Rain = 0
KBR1 150844Z 36011KT 16/12 A2983 RMK A01 T01640119  RH  075%=      5-min Rain = 0
KBR1 150845Z 00011KT 16/12 A2982 RMK A01 T01640119  RH  075%=      5-min Rain = 0
KBR1 150846Z 36010KT 16/12 A2983 RMK A01 T01640119  RH  075%=      5-min Rain = 0
KBR1 150847Z 36010KT 16/12 A2983 RMK A01 T01640119  RH  075%=      5-min Rain = 0
KBR1 150848Z 35010KT 16/12 A2983 RMK A01 T01640119  RH  075%=      5-min Rain = 0
KBR1 150849Z 35012KT 16/12 A2983 RMK A01 T01640119  RH  075%=      5-min Rain = 0
KBR1 150850Z 35011KT 16/12 A2983 RMK A01 T01640119  RH  074%=      5-min Rain = 0
KBR1 150851Z 35011KT 16/12 A2983 RMK A01 T01640119  RH  074%=      5-min Rain = 0
KBR1 150852Z 35012KT 16/12 A2983 RMK A01 T01640119  RH  074%=      5-min Rain = 0
KBR1 150853Z 35011KT 16/12 A2983 RMK A01 T01640118  RH  074%=      5-min Rain = 0
KBR1 150854Z 35012KT 17/12 A2983 RMK A01 T01650118  RH  074%=      5-min Rain = 0
KBR1 150855Z 36013KT 17/12 A2983 RMK A01 T01650118  RH  074%=      5-min Rain = 0
KBR1 150856Z 35011KT 17/12 A2983 RMK A01 T01650118  RH  074%=      5-min Rain = 0
KBR1 150857Z 35012KT 17/12 A2983 RMK A01 T01650118  RH  074%=      5-min Rain = 0
KBR1 150858Z 35013KT 17/12 A2983 RMK A01 T01650118  RH  074%=      5-min Rain = 0
KBR1 150859Z 36013KT 17/12 A2983 RMK A01 T01650118  RH  074%=      5-min Rain = 0
KBR1 150900Z 36014KT 17/12 A2983 RMK A01 T01660118  RH  074%=      5-min Rain = 0
KBR1 150901Z 36014KT 17/12 A2983 RMK A01 T01660118  RH  073%=      5-min Rain = 0
KBR1 150902Z 36014KT 17/12 A2983 RMK A01 T01670119  RH  073%=      5-min Rain = 0
KBR1 150903Z 36014KT 17/12 A2983 RMK A01 T01660119  RH  073%=      5-min Rain = 0
KBR1 150904Z 36013KT 17/12 A2983 RMK A01 T01660119  RH  074%=      5-min Rain = 0
KBR1 150905Z 35013KT 17/12 A2983 RMK A01 T01660119  RH  074%=      5-min Rain = 0
KBR1 150906Z 36014KT 17/12 A2983 RMK A01 T01660119  RH  074%=      5-min Rain = 0
KBR1 150907Z 00016KT 17/12 A2983 RMK A01 T01660119  RH  074%=      5-min Rain = 0
KBR1 150908Z 00013KT 17/12 A2983 RMK A01 T01670119  RH  073%=      5-min Rain = 0
KBR1 150909Z 00013KT 17/12 A2983 RMK A01 T01670119  RH  073%=      5-min Rain = 0
KBR1 150910Z 00013KT 17/12 A2983 RMK A01 T01670119  RH  073%=      5-min Rain = 0
KBR1 150911Z 36015KT 17/12 A2983 RMK A01 T01660119  RH  074%=      5-min Rain = 0
KBR1 150912Z 00015KT 17/12 A2983 RMK A01 T01660119  RH  074%=      5-min Rain = 0
KBR1 150913Z 00015KT 17/12 A2983 RMK A01 T01660119  RH  074%=      5-min Rain = 0
KBR1 150914Z 01015KT 17/12 A2983 RMK A01 T01660119  RH  073%=      5-min Rain = 0
KBR1 150915Z 01015KT 17/12 A2983 RMK A01 T01670119  RH  073%=      5-min Rain = 0
KBR1 150916Z 00016KT 17/12 A2983 RMK A01 T01670120  RH  073%=      5-min Rain = 0
KBR1 150917Z 00015KT 17/12 A2983 RMK A01 T01670119  RH  073%=      5-min Rain = 0
KBR1 150918Z 36014KT 17/12 A2983 RMK A01 T01670119  RH  073%=      5-min Rain = 0
KBR1 150919Z 00015KT 17/12 A2983 RMK A01 T01670120  RH  073%=      5-min Rain = 0
KBR1 150920Z 00016KT 17/12 A2983 RMK A01 T01670119  RH  073%=      5-min Rain = 0
KBR1 150921Z 36015KT 17/12 A2983 RMK A01 T01670119  RH  073%=      5-min Rain = 0
KBR1 150922Z 00016KT 17/12 A2983 RMK A01 T01670119  RH  073%=      5-min Rain = 0
KBR1 150923Z 01016KT 17/12 A2983 RMK A01 T01670119  RH  073%=      5-min Rain = 0
KBR1 150924Z 36016KT 17/12 A2983 RMK A01 T01670119  RH  073%=      5-min Rain = 0
KBR1 150925Z 36015KT 17/12 A2983 RMK A01 T01670119  RH  073%=      5-min Rain = 0
KBR1 150926Z 36015KT 17/12 A2983 RMK A01 T01670119  RH  074%=      5-min Rain = 0
KBR1 150927Z 36014KT 17/12 A2983 RMK A01 T01670119  RH  074%=      5-min Rain = 0
KBR1 150928Z 00015KT 17/12 A2983 RMK A01 T01670119  RH  074%=      5-min Rain = 0
KBR1 150929Z 36016KT 17/12 A2983 RMK A01 T01670119  RH  073%=      5-min Rain = 0
KBR1 150930Z 36016KT 17/12 A2983 RMK A01 T01670119  RH  073%=      5-min Rain = 0
KBR1 150931Z 35015KT 17/12 A2983 RMK A01 T01680119  RH  073%=      5-min Rain = 0
KBR1 150932Z 00016KT 17/12 A2983 RMK A01 T01680119  RH  073%=      5-min Rain = 0
KBR1 150933Z 00015KT 17/12 A2984 RMK A01 T01680119  RH  073%=      5-min Rain = 0
KBR1 150934Z 36015KT 17/12 A2984 RMK A01 T01680118  RH  073%=      5-min Rain = 0
KBR1 150935Z 36015KT 17/12 A2984 RMK A01 T01680119  RH  073%=      5-min Rain = 0
KBR1 150936Z 36014KT 17/12 A2984 RMK A01 T01680118  RH  073%=      5-min Rain = 0
KBR1 150937Z 36014KT 17/12 A2984 RMK A01 T01680119  RH  073%=      5-min Rain = 0
KBR1 150938Z 00015KT 17/12 A2984 RMK A01 T01680118  RH  073%=      5-min Rain = 0
KBR1 150939Z 36012KT 17/12 A2984 RMK A01 T01690118  RH  072%=      5-min Rain = 0
KBR1 150940Z 36014KT 17/12 A2984 RMK A01 T01690119  RH  072%=      5-min Rain = 0
KBR1 150941Z 00013KT 17/12 A2984 RMK A01 T01690118  RH  072%=      5-min Rain = 0
KBR1 150942Z 36012KT 17/12 A2984 RMK A01 T01690118  RH  072%=      5-min Rain = 0
KBR1 150943Z 36012KT 17/12 A2984 RMK A01 T01690118  RH  072%=      5-min Rain = 0
KBR1 150944Z 36013KT 17/12 A2984 RMK A01 T01690118  RH  072%=      5-min Rain = 0
KBR1 150945Z 36012KT 17/12 A2984 RMK A01 T01690119  RH  072%=      5-min Rain = 0
KBR1 150946Z 00012KT 17/12 A2984 RMK A01 T01680118  RH  072%=      5-min Rain = 0
KBR1 150947Z 00012KT 17/12 A2984 RMK A01 T01680118  RH  072%=      5-min Rain = 0
KBR1 150948Z 00012KT 17/12 A2984 RMK A01 T01680117  RH  072%=      5-min Rain = 0
KBR1 150949Z 00013KT 17/12 A2984 RMK A01 T01680117  RH  072%=      5-min Rain = 0
KBR1 150950Z 00012KT 17/12 A2984 RMK A01 T01690117  RH  071%=      5-min Rain = 0
KBR1 150951Z 00013KT 17/12 A2984 RMK A01 T01690117  RH  071%=      5-min Rain = 0
KBR1 150952Z 00012KT 17/12 A2984 RMK A01 T01690116  RH  071%=      5-min Rain = 0
KBR1 150953Z 00013KT 17/12 A2984 RMK A01 T01690117  RH  071%=      5-min Rain = 0
KBR1 150954Z 00013KT 17/12 A2984 RMK A01 T01690116  RH  071%=      5-min Rain = 0
KBR1 150955Z 00012KT 17/12 A2984 RMK A01 T01700117  RH  071%=      5-min Rain = 0
KBR1 150956Z 00012KT 17/12 A2984 RMK A01 T01700117  RH  071%=      5-min Rain = 0
KBR1 150957Z 36012KT 17/12 A2984 RMK A01 T01700117  RH  071%=      5-min Rain = 0
KBR1 150958Z 35014KT 17/12 A2984 RMK A01 T01700117  RH  071%=      5-min Rain = 0
KBR1 150959Z 36014KT 17/12 A2984 RMK A01 T01700116  RH  070%=      5-min Rain = 0
KBR1 151000Z 36013KT 17/12 A2984 RMK A01 T01700115  RH  070%=      5-min Rain = 0
KBR1 151001Z 35013KT 17/12 A2984 RMK A01 T01700116  RH  070%=      5-min Rain = 0
KBR1 151002Z 35013KT 17/12 A2984 RMK A01 T01700116  RH  070%=      5-min Rain = 0
KBR1 151003Z 36014KT 17/12 A2984 RMK A01 T01700116  RH  070%=      5-min Rain = 0
KBR1 151004Z 36014KT 17/12 A2984 RMK A01 T01700116  RH  070%=      5-min Rain = 0
KBR1 151005Z 00015KT 17/12 A2984 RMK A01 T01700116  RH  070%=      5-min Rain = 0
KBR1 151006Z 35015KT 17/12 A2984 RMK A01 T01700115  RH  070%=      5-min Rain = 0
KBR1 151007Z 35015KT 17/12 A2984 RMK A01 T01700115  RH  070%=      5-min Rain = 0
KBR1 151008Z 35014KT 17/11 A2984 RMK A01 T01710114  RH  070%=      5-min Rain = 0
KBR1 151009Z 35014KT 17/11 A2984 RMK A01 T01710114  RH  069%=      5-min Rain = 0
KBR1 151010Z 35012KT 17/12 A2985 RMK A01 T01710115  RH  069%=      5-min Rain = 0
KBR1 151011Z 35015KT 17/12 A2984 RMK A01 T01710115  RH  069%=      5-min Rain = 0
KBR1 151012Z 35014KT 17/12 A2984 RMK A01 T01710115  RH  069%=      5-min Rain = 0
KBR1 151013Z 35013KT 17/12 A2984 RMK A01 T01710115  RH  069%=      5-min Rain = 0
KBR1 151014Z 34014KT 17/11 A2985 RMK A01 T01710114  RH  069%=      5-min Rain = 0
KBR1 151015Z 34013KT 17/11 A2985 RMK A01 T01710114  RH  069%=      5-min Rain = 0
KBR1 151016Z 35013KT 17/11 A2985 RMK A01 T01700114  RH  070%=      5-min Rain = 0
KBR1 151017Z 34013KT 17/11 A2985 RMK A01 T01690114  RH  070%=      5-min Rain = 0
KBR1 151018Z 34014KT 17/11 A2985 RMK A01 T01690113  RH  070%=      5-min Rain = 0
KBR1 151019Z 35014KT 17/11 A2985 RMK A01 T01700113  RH  069%=      5-min Rain = 0
KBR1 151020Z 34012KT 17/11 A2985 RMK A01 T01700113  RH  069%=      5-min Rain = 0
KBR1 151021Z 35011KT 17/11 A2985 RMK A01 T01700113  RH  069%=      5-min Rain = 0
KBR1 151022Z 35011KT 17/11 A2985 RMK A01 T01690113  RH  069%=      5-min Rain = 0
KBR1 151023Z 35011KT 17/11 A2985 RMK A01 T01690113  RH  069%=      5-min Rain = 0
KBR1 151024Z 35012KT 17/11 A2985 RMK A01 T01700113  RH  069%=      5-min Rain = 0
KBR1 151025Z 34012KT 17/11 A2985 RMK A01 T01690112  RH  069%=      5-min Rain = 0
KBR1 151026Z 34011KT 17/11 A2985 RMK A01 T01690112  RH  069%=      5-min Rain = 0
KBR1 151027Z 34012KT 17/11 A2986 RMK A01 T01690112  RH  069%=      5-min Rain = 0
KBR1 151028Z 34012KT 17/11 A2986 RMK A01 T01690112  RH  069%=      5-min Rain = 0
KBR1 151029Z 35011KT 17/11 A2986 RMK A01 T01690112  RH  069%=      5-min Rain = 0
KBR1 151030Z 35010KT 17/11 A2986 RMK A01 T01690111  RH  069%=      5-min Rain = 0
KBR1 151031Z 35010KT 17/11 A2986 RMK A01 T01680112  RH  069%=      5-min Rain = 0
KBR1 151032Z 35010KT 17/11 A2986 RMK A01 T01680111  RH  069%=      5-min Rain = 0
KBR1 151033Z 35012KT 17/11 A2986 RMK A01 T01680111  RH  069%=      5-min Rain = 0
KBR1 151034Z 35011KT 17/11 A2986 RMK A01 T01680111  RH  069%=      5-min Rain = 0
KBR1 151035Z 36011KT 17/11 A2986 RMK A01 T01680111  RH  069%=      5-min Rain = 0
KBR1 151036Z 35012KT 17/11 A2986 RMK A01 T01680111  RH  069%=      5-min Rain = 0
KBR1 151037Z 35012KT 17/11 A2986 RMK A01 T01680110  RH  069%=      5-min Rain = 0
KBR1 151038Z 35012KT 17/11 A2986 RMK A01 T01680110  RH  069%=      5-min Rain = 0
KBR1 151039Z 35012KT 17/11 A2986 RMK A01 T01680110  RH  069%=      5-min Rain = 0
KBR1 151040Z 36012KT 17/11 A2986 RMK A01 T01680111  RH  069%=      5-min Rain = 0
KBR1 151041Z 35013KT 17/11 A2986 RMK A01 T01680111  RH  069%=      5-min Rain = 0
KBR1 151042Z 35013KT 17/11 A2986 RMK A01 T01680111  RH  069%=      5-min Rain = 0
KBR1 151043Z 35012KT 17/11 A2986 RMK A01 T01680111  RH  069%=      5-min Rain = 0
KBR1 151044Z 35014KT 17/11 A2986 RMK A01 T01670111  RH  069%=      5-min Rain = 0
KBR1 151045Z 35015KT 17/11 A2986 RMK A01 T01680111  RH  069%=      5-min Rain = 0
KBR1 151046Z 35015KT 17/11 A2986 RMK A01 T01680110  RH  068%=      5-min Rain = 0
KBR1 151047Z 34013KT 17/11 A2986 RMK A01 T01690110  RH  068%=      5-min Rain = 0
KBR1 151048Z 34014KT 17/11 A2986 RMK A01 T01690111  RH  068%=      5-min Rain = 0
KBR1 151049Z 35013KT 17/11 A2986 RMK A01 T01690110  RH  068%=      5-min Rain = 0
KBR1 151050Z 34013KT 17/11 A2986 RMK A01 T01680110  RH  069%=      5-min Rain = 0
KBR1 151051Z 34012KT 17/11 A2987 RMK A01 T01680110  RH  069%=      5-min Rain = 0
KBR1 151052Z 34013KT 17/11 A2987 RMK A01 T01670110  RH  069%=      5-min Rain = 0
KBR1 151053Z 35012KT 17/11 A2987 RMK A01 T01670110  RH  069%=      5-min Rain = 0
KBR1 151054Z 35013KT 17/11 A2987 RMK A01 T01670110  RH  069%=      5-min Rain = 0
KBR1 151055Z 35013KT 17/11 A2987 RMK A01 T01670110  RH  069%=      5-min Rain = 0
KBR1 151056Z 35014KT 17/11 A2987 RMK A01 T01670110  RH  069%=      5-min Rain = 0
KBR1 151057Z 35013KT 17/11 A2987 RMK A01 T01670110  RH  069%=      5-min Rain = 0
KBR1 151058Z 35014KT 17/11 A2987 RMK A01 T01670110  RH  069%=      5-min Rain = 0
KBR1 151059Z 35013KT 17/11 A2987 RMK A01 T01670110  RH  069%=      5-min Rain = 0
KBR1 151100Z 35014G19KT 17/11 A2986 RMK A01 T01670110  RH  069%=      5-min Rain = 0
KBR1 151101Z 35013KT 17/11 A2986 RMK A01 T01670110  RH  069%=      5-min Rain = 0
KBR1 151102Z 35012KT 17/11 A2986 RMK A01 T01670110  RH  069%=      5-min Rain = 0
KBR1 151103Z 35012KT 17/11 A2986 RMK A01 T01670110  RH  069%=      5-min Rain = 0
KBR1 151104Z 35013KT 17/11 A2986 RMK A01 T01660110  RH  069%=      5-min Rain = 0
KBR1 151105Z 35014KT 17/11 A2986 RMK A01 T01660110  RH  069%=      5-min Rain = 0
KBR1 151106Z 35015KT 17/11 A2986 RMK A01 T01660110  RH  069%=      5-min Rain = 0
KBR1 151107Z 35013KT 17/11 A2986 RMK A01 T01670110  RH  069%=      5-min Rain = 0
KBR1 151108Z 35012KT 17/11 A2986 RMK A01 T01670110  RH  069%=      5-min Rain = 0
KBR1 151109Z 35011KT 17/11 A2986 RMK A01 T01670111  RH  069%=      5-min Rain = 0
KBR1 151110Z 36012KT 17/11 A2986 RMK A01 T01660111  RH  070%=      5-min Rain = 0
KBR1 151111Z 35013KT 17/11 A2986 RMK A01 T01660111  RH  070%=      5-min Rain = 0
KBR1 151112Z 36014KT 17/11 A2986 RMK A01 T01670111  RH  069%=      5-min Rain = 0
KBR1 151113Z 36014KT 17/11 A2986 RMK A01 T01680111  RH  069%=      5-min Rain = 0
KBR1 151114Z 36014KT 17/11 A2986 RMK A01 T01690111  RH  069%=      5-min Rain = 0
KBR1 151115Z 36014KT 17/11 A2986 RMK A01 T01690111  RH  069%=      5-min Rain = 0
KBR1 151116Z 00013KT 17/11 A2986 RMK A01 T01700111  RH  068%=      5-min Rain = 0
KBR1 151117Z 36013KT 17/11 A2986 RMK A01 T01690111  RH  069%=      5-min Rain = 0
KBR1 151118Z 36014KT 17/11 A2986 RMK A01 T01690112  RH  069%=      5-min Rain = 0
KBR1 151119Z 36014KT 17/11 A2986 RMK A01 T01690112  RH  069%=      5-min Rain = 0
KBR1 151120Z 00015KT 17/11 A2986 RMK A01 T01690112  RH  069%=      5-min Rain = 0
KBR1 151121Z 36013KT 17/11 A2986 RMK A01 T01690111  RH  069%=      5-min Rain = 0
KBR1 151122Z 36013KT 17/11 A2986 RMK A01 T01700111  RH  068%=      5-min Rain = 0
KBR1 151123Z 36012KT 17/11 A2986 RMK A01 T01690111  RH  069%=      5-min Rain = 0
KBR1 151124Z 36011KT 17/11 A2986 RMK A01 T01680111  RH  069%=      5-min Rain = 0
KBR1 151125Z 35011KT 17/11 A2986 RMK A01 T01670111  RH  069%=      5-min Rain = 0
KBR1 151126Z 36011KT 17/11 A2986 RMK A01 T01670111  RH  070%=      5-min Rain = 0
KBR1 151127Z 36012KT 17/11 A2986 RMK A01 T01660111  RH  070%=      5-min Rain = 0
KBR1 151128Z 35011KT 17/11 A2986 RMK A01 T01660112  RH  070%=      5-min Rain = 0
KBR1 151129Z 36012KT 17/11 A2987 RMK A01 T01660111  RH  070%=      5-min Rain = 0
KBR1 151130Z 35013KT 17/11 A2987 RMK A01 T01660111  RH  070%=      5-min Rain = 0
KBR1 151131Z 35011KT 17/11 A2987 RMK A01 T01670111  RH  070%=      5-min Rain = 0
KBR1 151132Z 35012KT 17/11 A2987 RMK A01 T01670111  RH  069%=      5-min Rain = 0
KBR1 151133Z 35012KT 17/11 A2987 RMK A01 T01680111  RH  069%=      5-min Rain = 0
KBR1 151134Z 35012KT 17/11 A2987 RMK A01 T01680111  RH  069%=      5-min Rain = 0
KBR1 151135Z 35011KT 17/11 A2987 RMK A01 T01680111  RH  069%=      5-min Rain = 0
KBR1 151136Z 35012KT 17/11 A2987 RMK A01 T01670111  RH  070%=      5-min Rain = 0
KBR1 151137Z 35011KT 17/11 A2987 RMK A01 T01670111  RH  070%=      5-min Rain = 0
KBR1 151138Z 35012KT 17/11 A2987 RMK A01 T01670111  RH  070%=      5-min Rain = 0
KBR1 151139Z 35012KT 17/11 A2987 RMK A01 T01680111  RH  069%=      5-min Rain = 0
KBR1 151140Z 35011KT 17/11 A2987 RMK A01 T01680112  RH  069%=      5-min Rain = 0
KBR1 151141Z 35010KT 17/11 A2987 RMK A01 T01680112  RH  069%=      5-min Rain = 0
KBR1 151142Z 35011KT 17/11 A2987 RMK A01 T01680112  RH  070%=      5-min Rain = 0
KBR1 151143Z 34010KT 17/11 A2987 RMK A01 T01680112  RH  070%=      5-min Rain = 0
KBR1 151144Z 34011KT 17/11 A2987 RMK A01 T01680112  RH  070%=      5-min Rain = 0
KBR1 151145Z 34012KT 17/11 A2987 RMK A01 T01680111  RH  069%=      5-min Rain = 0
KBR1 151146Z 34012KT 17/11 A2987 RMK A01 T01680111  RH  069%=      5-min Rain = 0
KBR1 151147Z 34012KT 17/11 A2987 RMK A01 T01690111  RH  069%=      5-min Rain = 0
KBR1 151148Z 35011KT 17/11 A2987 RMK A01 T01690111  RH  069%=      5-min Rain = 0
KBR1 151149Z 34011KT 17/11 A2987 RMK A01 T01690111  RH  068%=      5-min Rain = 0
KBR1 151150Z 34010KT 17/11 A2987 RMK A01 T01700111  RH  068%=      5-min Rain = 0
KBR1 151151Z 33010KT 17/11 A2987 RMK A01 T01700111  RH  068%=      5-min Rain = 0
KBR1 151152Z 34011KT 17/11 A2987 RMK A01 T01700110  RH  068%=      5-min Rain = 0
KBR1 151153Z 34011KT 17/11 A2987 RMK A01 T01700111  RH  068%=      5-min Rain = 0
KBR1 151154Z 34011KT 17/11 A2988 RMK A01 T01700110  RH  068%=      5-min Rain = 0
KBR1 151155Z 34011KT 17/11 A2988 RMK A01 T01700110  RH  068%=      5-min Rain = 0
KBR1 151156Z 34011KT 17/11 A2988 RMK A01 T01700110  RH  068%=      5-min Rain = 0
KBR1 151157Z 34011KT 17/11 A2988 RMK A01 T01700110  RH  068%=      5-min Rain = 0
KBR1 151158Z 34010KT 17/11 A2988 RMK A01 T01700110  RH  068%=      5-min Rain = 0
KBR1 151159Z 33011KT 17/11 A2988 RMK A01 T01700109  RH  067%=      5-min Rain = 0
KBR1 151200Z 34012KT 17/11 A2988 RMK A01 T01710109  RH  067%=      5-min Rain = 0
KBR1 151201Z 34011KT 17/11 A2988 RMK A01 T01710109  RH  067%=      5-min Rain = 0
KBR1 151202Z 34010KT 17/11 A2988 RMK A01 T01710109  RH  067%=      5-min Rain = 0
KBR1 151203Z 34010KT 17/11 A2988 RMK A01 T01710110  RH  067%=      5-min Rain = 0
KBR1 151204Z 34010KT 17/11 A2988 RMK A01 T01710110  RH  067%=      5-min Rain = 0
KBR1 151205Z 34011KT 17/11 A2988 RMK A01 T01700109  RH  067%=      5-min Rain = 0
KBR1 151206Z 34010KT 17/11 A2988 RMK A01 T01700109  RH  067%=      5-min Rain = 0
KBR1 151207Z 33010KT 17/11 A2988 RMK A01 T01700108  RH  067%=      5-min Rain = 0
KBR1 151208Z 34011KT 17/11 A2988 RMK A01 T01710108  RH  066%=      5-min Rain = 0
KBR1 151209Z 34010KT 17/11 A2988 RMK A01 T01720108  RH  066%=      5-min Rain = 0
KBR1 151210Z 34009KT 17/11 A2988 RMK A01 T01720109  RH  066%=      5-min Rain = 0
KBR1 151211Z 34011KT 17/11 A2988 RMK A01 T01720109  RH  066%=      5-min Rain = 0
KBR1 151212Z 34011KT 17/11 A2988 RMK A01 T01720108  RH  066%=      5-min Rain = 0
KBR1 151213Z 35009KT 17/11 A2988 RMK A01 T01720108  RH  066%=      5-min Rain = 0
KBR1 151214Z 35010KT 17/11 A2988 RMK A01 T01720109  RH  066%=      5-min Rain = 0
KBR1 151215Z 35009KT 17/11 A2988 RMK A01 T01730108  RH  066%=      5-min Rain = 0
KBR1 151216Z 35010KT 17/11 A2988 RMK A01 T01730109  RH  066%=      5-min Rain = 0
KBR1 151217Z 35011KT 17/11 A2988 RMK A01 T01740108  RH  065%=      5-min Rain = 0
KBR1 151218Z 35011KT 17/11 A2988 RMK A01 T01740108  RH  065%=      5-min Rain = 0
KBR1 151219Z 35012KT 18/11 A2988 RMK A01 T01750108  RH  065%=      5-min Rain = 0
KBR1 151220Z 35013KT 18/11 A2988 RMK A01 T01750108  RH  065%=      5-min Rain = 0
KBR1 151221Z 35013KT 18/11 A2988 RMK A01 T01760108  RH  064%=      5-min Rain = 0
KBR1 151222Z 35013KT 18/11 A2988 RMK A01 T01770108  RH  064%=      5-min Rain = 0
KBR1 151223Z 35014KT 18/11 A2988 RMK A01 T01780107  RH  063%=      5-min Rain = 0
KBR1 151224Z 35014KT 18/11 A2988 RMK A01 T01790107  RH  063%=      5-min Rain = 0
KBR1 151225Z 35012KT 18/11 A2988 RMK A01 T01790107  RH  063%=      5-min Rain = 0
KBR1 151226Z 35012KT 18/11 A2988 RMK A01 T01790108  RH  063%=      5-min Rain = 0
KBR1 151227Z 35015KT 18/11 A2988 RMK A01 T01790107  RH  063%=      5-min Rain = 0
KBR1 151228Z 35013KT 18/11 A2988 RMK A01 T01790107  RH  063%=      5-min Rain = 0
KBR1 151229Z 35016KT 18/11 A2988 RMK A01 T01790107  RH  063%=      5-min Rain = 0
KBR1 151230Z 35016KT 18/11 A2988 RMK A01 T01800106  RH  062%=      5-min Rain = 0
KBR1 151231Z 35013KT 18/11 A2988 RMK A01 T01810107  RH  062%=      5-min Rain = 0
KBR1 151232Z 35014KT 18/11 A2988 RMK A01 T01820107  RH  062%=      5-min Rain = 0
KBR1 151233Z 35012KT 18/11 A2989 RMK A01 T01820107  RH  061%=      5-min Rain = 0
KBR1 151234Z 35013KT 18/11 A2989 RMK A01 T01820107  RH  062%=      5-min Rain = 0
KBR1 151235Z 35013KT 18/11 A2989 RMK A01 T01830107  RH  061%=      5-min Rain = 0
KBR1 151236Z 35015KT 18/11 A2989 RMK A01 T01830107  RH  061%=      5-min Rain = 0
KBR1 151237Z 35014KT 18/11 A2989 RMK A01 T01840107  RH  061%=      5-min Rain = 0
KBR1 151238Z 35014KT 19/11 A2989 RMK A01 T01850107  RH  061%=      5-min Rain = 0
KBR1 151239Z 35013KT 19/11 A2989 RMK A01 T01850107  RH  060%=      5-min Rain = 0
KBR1 151240Z 35011KT 19/11 A2989 RMK A01 T01860107  RH  060%=      5-min Rain = 0
KBR1 151241Z 35013KT 19/11 A2989 RMK A01 T01860108  RH  060%=      5-min Rain = 0
KBR1 151242Z 35013KT 19/11 A2989 RMK A01 T01860106  RH  060%=      5-min Rain = 0
KBR1 151243Z 35014KT 19/11 A2989 RMK A01 T01870107  RH  060%=      5-min Rain = 0
KBR1 151244Z 35013KT 19/11 A2989 RMK A01 T01870106  RH  059%=      5-min Rain = 0
KBR1 151245Z 35014KT 19/11 A2989 RMK A01 T01870107  RH  059%=      5-min Rain = 0
KBR1 151246Z 34012KT 19/11 A2989 RMK A01 T01880107  RH  059%=      5-min Rain = 0
KBR1 151247Z 34013KT 19/11 A2989 RMK A01 T01880107  RH  059%=      5-min Rain = 0
KBR1 151248Z 34014KT 19/11 A299 RMK A01 T01890107  RH  059%=      5-min Rain = 0
KBR1 151249Z 34012KT 19/11 A299 RMK A01 T01890108  RH  059%=      5-min Rain = 0
KBR1 151250Z 34015KT 19/11 A299 RMK A01 T01890107  RH  059%=      5-min Rain = 0
KBR1 151251Z 35014KT 19/11 A299 RMK A01 T01890107  RH  059%=      5-min Rain = 0
KBR1 151252Z 35013KT 19/11 A299 RMK A01 T01890107  RH  059%=      5-min Rain = 0
KBR1 151253Z 35014KT 19/11 A299 RMK A01 T01900107  RH  059%=      5-min Rain = 0
KBR1 151254Z 35014KT 19/11 A299 RMK A01 T01900107  RH  059%=      5-min Rain = 0
KBR1 151255Z 36014KT 19/11 A299 RMK A01 T01910108  RH  058%=      5-min Rain = 0
KBR1 151256Z 36014KT 19/11 A299 RMK A01 T01920109  RH  059%=      5-min Rain = 0
KBR1 151257Z 35015KT 19/11 A299 RMK A01 T01920108  RH  058%=      5-min Rain = 0
KBR1 151258Z 36014KT 19/11 A299 RMK A01 T01920107  RH  058%=      5-min Rain = 0
KBR1 151259Z 35016KT 19/11 A299 RMK A01 T01920107  RH  058%=      5-min Rain = 0
KBR1 151300Z 35015KT 19/11 A299 RMK A01 T01920107  RH  058%=      5-min Rain = 0
KBR1 151301Z 35014KT 19/11 A299 RMK A01 T01920107  RH  058%=      5-min Rain = 0
KBR1 151302Z 36015KT 19/11 A299 RMK A01 T01930107  RH  058%=      5-min Rain = 0
KBR1 151303Z 35014KT 19/11 A299 RMK A01 T01930107  RH  057%=      5-min Rain = 0
KBR1 151304Z 35014KT 19/11 A299 RMK A01 T01940108  RH  058%=      5-min Rain = 0
KBR1 151305Z 35015KT 19/11 A299 RMK A01 T01940108  RH  057%=      5-min Rain = 0
KBR1 151306Z 36013KT 20/11 A299 RMK A01 T01950108  RH  057%=      5-min Rain = 0
KBR1 151307Z 35016KT 20/11 A299 RMK A01 T01950108  RH  057%=      5-min Rain = 0
KBR1 151308Z 00014KT 20/11 A299 RMK A01 T01950107  RH  057%=      5-min Rain = 0
KBR1 151309Z 36013KT 20/11 A299 RMK A01 T01960109  RH  057%=      5-min Rain = 0
KBR1 151310Z 36012KT 20/11 A299 RMK A01 T01960108  RH  057%=      5-min Rain = 0
KBR1 151311Z 36011G16KT 20/11 A299 RMK A01 T01970109  RH  057%=      5-min Rain = 0
KBR1 151312Z 36015KT 20/11 A299 RMK A01 T01970109  RH  057%=      5-min Rain = 0
KBR1 151313Z 35013KT 20/11 A299 RMK A01 T01980108  RH  056%=      5-min Rain = 0
KBR1 151314Z 35014KT 20/11 A299 RMK A01 T01980108  RH  056%=      5-min Rain = 0
KBR1 151315Z 36016KT 20/11 A299 RMK A01 T01990108  RH  056%=      5-min Rain = 0
KBR1 151316Z 36016KT 20/11 A299 RMK A01 T01990107  RH  055%=      5-min Rain = 0
KBR1 151317Z 36014KT 20/11 A299 RMK A01 T01990107  RH  055%=      5-min Rain = 0
KBR1 151318Z 35015KT 20/11 A299 RMK A01 T02000109  RH  056%=      5-min Rain = 0
KBR1 151319Z 35015KT 20/11 A299 RMK A01 T02000107  RH  055%=      5-min Rain = 0
KBR1 151320Z 36015G20KT 20/11 A299 RMK A01 T02000109  RH  055%=      5-min Rain = 0
KBR1 151321Z 36017KT 20/11 A299 RMK A01 T02010107  RH  055%=      5-min Rain = 0
KBR1 151322Z 35016KT 20/11 A299 RMK A01 T02010107  RH  055%=      5-min Rain = 0
KBR1 151323Z 36015KT 20/11 A299 RMK A01 T02020107  RH  055%=      5-min Rain = 0
KBR1 151324Z 36015KT 20/11 A299 RMK A01 T02020109  RH  055%=      5-min Rain = 0
KBR1 151325Z 00013KT 20/11 A299 RMK A01 T02020108  RH  055%=      5-min Rain = 0
KBR1 151326Z 36015KT 20/11 A299 RMK A01 T02030109  RH  055%=      5-min Rain = 0
KBR1 151327Z 36015KT 20/11 A299 RMK A01 T02040108  RH  054%=      5-min Rain = 0
KBR1 151328Z 36016KT 20/11 A299 RMK A01 T02040108  RH  054%=      5-min Rain = 0
KBR1 151329Z 35015KT 20/11 A299 RMK A01 T02040109  RH  054%=      5-min Rain = 0
KBR1 151330Z 36015KT 21/11 A299 RMK A01 T02050109  RH  054%=      5-min Rain = 0
KBR1 151331Z 35016KT 21/11 A299 RMK A01 T02050109  RH  054%=      5-min Rain = 0
KBR1 151332Z 35016KT 21/11 A299 RMK A01 T02060108  RH  054%=      5-min Rain = 0
KBR1 151333Z 35017KT 21/11 A299 RMK A01 T02060109  RH  054%=      5-min Rain = 0
KBR1 151334Z 36015KT 21/11 A299 RMK A01 T02060109  RH  054%=      5-min Rain = 0
KBR1 151335Z 35014KT 21/11 A299 RMK A01 T02060110  RH  054%=      5-min Rain = 0
KBR1 151336Z 35013KT 21/11 A299 RMK A01 T02070111  RH  054%=      5-min Rain = 0
KBR1 151337Z 35015KT 21/11 A299 RMK A01 T02080111  RH  054%=      5-min Rain = 0
KBR1 151338Z 35015KT 21/11 A299 RMK A01 T02080110  RH  053%=      5-min Rain = 0
KBR1 151339Z 35016KT 21/11 A2991 RMK A01 T02090110  RH  053%=      5-min Rain = 0
KBR1 151340Z 35014KT 21/11 A2991 RMK A01 T02090110  RH  053%=      5-min Rain = 0
KBR1 151341Z 35015KT 21/11 A2991 RMK A01 T02100111  RH  053%=      5-min Rain = 0
KBR1 151342Z 35015KT 21/11 A2991 RMK A01 T02100110  RH  053%=      5-min Rain = 0
KBR1 151343Z 35014KT 21/11 A2991 RMK A01 T02100110  RH  053%=      5-min Rain = 0
KBR1 151344Z 35015KT 21/11 A2991 RMK A01 T02110110  RH  053%=      5-min Rain = 0
KBR1 151345Z 34010G15KT 21/11 A2991 RMK A01 T02110111  RH  053%=      5-min Rain = 0
KBR1 151346Z 34012KT 21/11 A2991 RMK A01 T02120112  RH  053%=      5-min Rain = 0
KBR1 151347Z 35012KT 21/11 A2992 RMK A01 T02130111  RH  052%=      5-min Rain = 0
KBR1 151348Z 35013KT 21/11 A2992 RMK A01 T02140112  RH  052%=      5-min Rain = 0
KBR1 151349Z 35010KT 21/11 A2992 RMK A01 T02140111  RH  052%=      5-min Rain = 0
KBR1 151350Z 35009KT 22/11 A2992 RMK A01 T02150113  RH  052%=      5-min Rain = 0
KBR1 151351Z 35011KT 22/11 A2992 RMK A01 T02150113  RH  052%=      5-min Rain = 0
KBR1 151352Z 36008KT 22/11 A2992 RMK A01 T02160113  RH  052%=      5-min Rain = 0
KBR1 151353Z 33008KT 22/11 A2992 RMK A01 T02160114  RH  052%=      5-min Rain = 0
KBR1 151354Z 35010KT 22/11 A2993 RMK A01 T02180112  RH  051%=      5-min Rain = 0
KBR1 151355Z 36009KT 22/11 A2993 RMK A01 T02180111  RH  051%=      5-min Rain = 0
KBR1 151356Z 36011KT 22/11 A2993 RMK A01 T02180111  RH  051%=      5-min Rain = 0
KBR1 151357Z 35009KT 22/11 A2993 RMK A01 T02180112  RH  051%=      5-min Rain = 0
KBR1 151358Z 34008KT 22/11 A2993 RMK A01 T02190111  RH  050%=      5-min Rain = 0
KBR1 151359Z 33005KT 22/11 A2993 RMK A01 T02190113  RH  051%=      5-min Rain = 0
KBR1 151400Z 00004KT 22/11 A2993 RMK A01 T02200113  RH  051%=      5-min Rain = 0
KBR1 151401Z 35003KT 22/11 A2993 RMK A01 T02210114  RH  051%=      5-min Rain = 0
KBR1 151402Z 36006KT 22/11 A2993 RMK A01 T02210112  RH  050%=      5-min Rain = 0
KBR1 151403Z 00009G14KT 22/12 A2994 RMK A01 T02220115  RH  050%=      5-min Rain = 0
KBR1 151404Z 35008KT 22/11 A2994 RMK A01 T02220113  RH  050%=      5-min Rain = 0
KBR1 151405Z 34006KT 22/12 A2994 RMK A01 T02230115  RH  050%=      5-min Rain = 0
KBR1 151406Z 33008KT 22/11 A2993 RMK A01 T02230114  RH  050%=      5-min Rain = 0
KBR1 151407Z 35010KT 22/11 A2994 RMK A01 T02230113  RH  050%=      5-min Rain = 0
KBR1 151408Z 35011KT 22/11 A2994 RMK A01 T02230114  RH  050%=      5-min Rain = 0
KBR1 151409Z 35010KT 22/11 A2994 RMK A01 T02230114  RH  050%=      5-min Rain = 0
KBR1 151410Z 36010KT 22/12 A2994 RMK A01 T02230115  RH  050%=      5-min Rain = 0
KBR1 151411Z 34011G16KT 22/11 A2993 RMK A01 T02240113  RH  049%=      5-min Rain = 0
KBR1 151412Z 35012KT 22/11 A2993 RMK A01 T02240114  RH  050%=      5-min Rain = 0
KBR1 151413Z 35009KT 22/12 A2993 RMK A01 T02240115  RH  050%=      5-min Rain = 0
KBR1 151414Z 35011KT 22/12 A2993 RMK A01 T02240116  RH  050%=      5-min Rain = 0
KBR1 151415Z 00011KT 23/11 A2993 RMK A01 T02250114  RH  050%=      5-min Rain = 0
KBR1 151416Z 35009KT 23/12 A2993 RMK A01 T02250117  RH  050%=      5-min Rain = 0
KBR1 151417Z 35008KT 23/12 A2993 RMK A01 T02260118  RH  050%=      5-min Rain = 0
KBR1 151418Z 34010KT 23/12 A2993 RMK A01 T02280119  RH  050%=      5-min Rain = 0
KBR1 151419Z 34012KT 23/12 A2993 RMK A01 T02290117  RH  049%=      5-min Rain = 0
KBR1 151420Z 34011KT 23/12 A2993 RMK A01 T02280117  RH  050%=      5-min Rain = 0
KBR1 151421Z 34011KT 23/12 A2993 RMK A01 T02280118  RH  050%=      5-min Rain = 0
KBR1 151422Z 34011KT 23/12 A2993 RMK A01 T02290118  RH  050%=      5-min Rain = 0
KBR1 151423Z 34010KT 23/12 A2993 RMK A01 T02290119  RH  050%=      5-min Rain = 0
KBR1 151424Z 35012KT 23/12 A2993 RMK A01 T02300121  RH  050%=      5-min Rain = 0
KBR1 151425Z 35011KT 23/12 A2993 RMK A01 T02310121  RH  050%=      5-min Rain = 0
KBR1 151426Z 35011KT 23/12 A2993 RMK A01 T02320122  RH  050%=      5-min Rain = 0
KBR1 151427Z 34011KT 23/12 A2993 RMK A01 T02320122  RH  050%=      5-min Rain = 0
KBR1 151428Z 35013KT 23/12 A2993 RMK A01 T02330121  RH  049%=      5-min Rain = 0
KBR1 151429Z 35012KT 23/12 A2994 RMK A01 T02330121  RH  049%=      5-min Rain = 0
KBR1 151430Z 35012KT 23/12 A2994 RMK A01 T02330120  RH  049%=      5-min Rain = 0
KBR1 151431Z 34011KT 23/12 A2994 RMK A01 T02320122  RH  050%=      5-min Rain = 0
KBR1 151432Z 34012KT 23/12 A2994 RMK A01 T02330121  RH  049%=      5-min Rain = 0
KBR1 151433Z 35010KT 23/12 A2994 RMK A01 T02330123  RH  050%=      5-min Rain = 0
KBR1 151434Z 36012KT 24/13 A2993 RMK A01 T02350125  RH  050%=      5-min Rain = 0
KBR1 151435Z 36011KT 24/12 A2993 RMK A01 T02350124  RH  050%=      5-min Rain = 0
KBR1 151436Z 01012KT 24/12 A2993 RMK A01 T02350123  RH  049%=      5-min Rain = 0
KBR1 151437Z 00012KT 24/12 A2993 RMK A01 T02350124  RH  050%=      5-min Rain = 0
KBR1 151438Z 00013KT 24/12 A2993 RMK A01 T02360123  RH  049%=      5-min Rain = 0
KBR1 151439Z 01011KT 24/12 A2993 RMK A01 T02350123  RH  050%=      5-min Rain = 0
KBR1 151440Z 35011KT 24/13 A2993 RMK A01 T02350125  RH  050%=      5-min Rain = 0
KBR1 151441Z 35011KT 24/13 A2993 RMK A01 T02350125  RH  050%=      5-min Rain = 0
KBR1 151442Z 36011KT 24/12 A2993 RMK A01 T02360124  RH  049%=      5-min Rain = 0
KBR1 151443Z 35011KT 24/12 A2993 RMK A01 T02360123  RH  049%=      5-min Rain = 0
KBR1 151444Z 34011KT 24/12 A2993 RMK A01 T02360124  RH  049%=      5-min Rain = 0
KBR1 151445Z 34010KT 24/12 A2993 RMK A01 T02360123  RH  049%=      5-min Rain = 0
KBR1 151446Z 35007KT 24/13 A2993 RMK A01 T02360125  RH  050%=      5-min Rain = 0
KBR1 151447Z 35009KT 24/13 A2993 RMK A01 T02390129  RH  050%=      5-min Rain = 0
KBR1 151448Z 00008KT 24/13 A2993 RMK A01 T02410127  RH  049%=      5-min Rain = 0
KBR1 151449Z 36008KT 24/13 A2993 RMK A01 T02410130  RH  050%=      5-min Rain = 0
KBR1 151450Z 33010KT 24/13 A2993 RMK A01 T02430126  RH  048%=      5-min Rain = 0
KBR1 151451Z 33008KT 24/12 A2993 RMK A01 T02410124  RH  048%=      5-min Rain = 0
KBR1 151452Z 35008KT 24/13 A2993 RMK A01 T02410129  RH  050%=      5-min Rain = 0
KBR1 151453Z 00010KT 24/13 A2993 RMK A01 T02420129  RH  049%=      5-min Rain = 0
KBR1 151454Z 01011KT 24/13 A2993 RMK A01 T02440129  RH  049%=      5-min Rain = 0
KBR1 151455Z 00010KT 24/13 A2993 RMK A01 T02430129  RH  049%=      5-min Rain = 0
KBR1 151456Z 35008KT 24/13 A2993 RMK A01 T02420132  RH  050%=      5-min Rain = 0
KBR1 151457Z 36011KT 25/13 A2993 RMK A01 T02450132  RH  049%=      5-min Rain = 0
KBR1 151458Z 35010KT 25/13 A2993 RMK A01 T02450130  RH  049%=      5-min Rain = 0
KBR1 151459Z 34009KT 25/13 A2993 RMK A01 T02450131  RH  049%=      5-min Rain = 0
KBR1 151500Z 34009KT 25/13 A2993 RMK A01 T02460130  RH  048%=      5-min Rain = 0
KBR1 151501Z 36009KT 25/14 A2993 RMK A01 T02460135  RH  050%=      5-min Rain = 0
KBR1 151502Z 00010KT 25/14 A2993 RMK A01 T02480136  RH  050%=      5-min Rain = 0
KBR1 151503Z 34010KT 25/14 A2993 RMK A01 T02510136  RH  049%=      5-min Rain = 0
KBR1 151504Z 34011KT 25/13 A2993 RMK A01 T02510133  RH  048%=      5-min Rain = 0
KBR1 151505Z 35012KT 25/13 A2993 RMK A01 T02500133  RH  048%=      5-min Rain = 0
KBR1 151506Z 35010KT 25/13 A2993 RMK A01 T02500134  RH  049%=      5-min Rain = 0
KBR1 151507Z 35013KT 25/14 A2993 RMK A01 T02510137  RH  049%=      5-min Rain = 0
KBR1 151508Z 36013KT 25/14 A2993 RMK A01 T02520136  RH  048%=      5-min Rain = 0
KBR1 151509Z 36012KT 25/14 A2993 RMK A01 T02520136  RH  049%=      5-min Rain = 0
KBR1 151510Z 36012KT 25/14 A2993 RMK A01 T02510136  RH  049%=      5-min Rain = 0
KBR1 151511Z 36013KT 25/14 A2993 RMK A01 T02510136  RH  049%=      5-min Rain = 0
KBR1 151512Z 36013KT 25/14 A2993 RMK A01 T02510135  RH  049%=      5-min Rain = 0
KBR1 151513Z 35013KT 25/14 A2993 RMK A01 T02510135  RH  048%=      5-min Rain = 0
KBR1 151514Z 34012KT 25/14 A2993 RMK A01 T02500136  RH  049%=      5-min Rain = 0
KBR1 151515Z 00013KT 25/14 A2993 RMK A01 T02510137  RH  049%=      5-min Rain = 0
KBR1 151516Z 00012KT 25/13 A2993 RMK A01 T02520134  RH  048%=      5-min Rain = 0
KBR1 151517Z 36010KT 25/13 A2993 RMK A01 T02500134  RH  048%=      5-min Rain = 0
KBR1 151518Z 36012KT 25/14 A2993 RMK A01 T02510139  RH  050%=      5-min Rain = 0
KBR1 151519Z 35011KT 25/14 A2993 RMK A01 T02530136  RH  048%=      5-min Rain = 0
KBR1 151520Z 02012KT 25/14 A2993 RMK A01 T02530137  RH  048%=      5-min Rain = 0
KBR1 151521Z 00013KT 25/14 A2993 RMK A01 T02520137  RH  049%=      5-min Rain = 0
KBR1 151522Z 02014KT 25/14 A2993 RMK A01 T02520135  RH  048%=      5-min Rain = 0
KBR1 151523Z 02015KT 25/14 A2993 RMK A01 T02520136  RH  048%=      5-min Rain = 0
KBR1 151524Z 02012KT 25/14 A2993 RMK A01 T02530136  RH  048%=      5-min Rain = 0
KBR1 151525Z 01014KT 25/14 A2993 RMK A01 T02540137  RH  048%=      5-min Rain = 0
KBR1 151526Z 01013KT 25/14 A2993 RMK A01 T02540135  RH  048%=      5-min Rain = 0
KBR1 151527Z 02015KT 25/14 A2993 RMK A01 T02540136  RH  048%=      5-min Rain = 0
KBR1 151528Z 02013KT 25/14 A2993 RMK A01 T02530135  RH  048%=      5-min Rain = 0
KBR1 151529Z 02014KT 25/13 A2993 RMK A01 T02540134  RH  047%=      5-min Rain = 0
KBR1 151530Z 01012KT 25/14 A2993 RMK A01 T02540136  RH  048%=      5-min Rain = 0
KBR1 151531Z 01013KT 26/14 A2993 RMK A01 T02550137  RH  048%=      5-min Rain = 0
KBR1 151532Z 01014KT 26/14 A2993 RMK A01 T02570135  RH  047%=      5-min Rain = 0
KBR1 151533Z 01014KT 26/13 A2993 RMK A01 T02570133  RH  046%=      5-min Rain = 0
KBR1 151534Z 01013KT 26/13 A2993 RMK A01 T02560134  RH  047%=      5-min Rain = 0
KBR1 151535Z 02012KT 26/13 A2992 RMK A01 T02560132  RH  046%=      5-min Rain = 0
KBR1 151536Z 01011KT 26/13 A2993 RMK A01 T02550134  RH  047%=      5-min Rain = 0
KBR1 151537Z 01017KT 26/13 A2992 RMK A01 T02560132  RH  046%=      5-min Rain = 0
KBR1 151538Z 02014KT 26/13 A2992 RMK A01 T02570132  RH  046%=      5-min Rain = 0
KBR1 151539Z 02011KT 26/13 A2992 RMK A01 T02570131  RH  046%=      5-min Rain = 0
KBR1 151540Z 03011KT 26/13 A2992 RMK A01 T02570134  RH  046%=      5-min Rain = 0
KBR1 151541Z 02016KT 26/13 A2992 RMK A01 T02610134  RH  045%=      5-min Rain = 0
KBR1 151542Z 02015KT 26/13 A2992 RMK A01 T02620128  RH  043%=      5-min Rain = 0
KBR1 151543Z 02016KT 26/13 A2992 RMK A01 T02610129  RH  044%=      5-min Rain = 0
KBR1 151544Z 03014KT 26/13 A2992 RMK A01 T02590133  RH  046%=      5-min Rain = 0
KBR1 151545Z 03015KT 26/13 A2992 RMK A01 T02600133  RH  046%=      5-min Rain = 0
KBR1 151546Z 02013KT 26/13 A2992 RMK A01 T02610134  RH  045%=      5-min Rain = 0
KBR1 151547Z 02011KT 26/13 A2992 RMK A01 T02620133  RH  045%=      5-min Rain = 0
KBR1 151548Z 01015KT 26/13 A2992 RMK A01 T02630131  RH  044%=      5-min Rain = 0
KBR1 151549Z 01016KT 26/13 A2992 RMK A01 T02630127  RH  043%=      5-min Rain = 0
KBR1 151550Z 02016KT 26/13 A2992 RMK A01 T02610127  RH  043%=      5-min Rain = 0
KBR1 151551Z 02015KT 26/13 A2992 RMK A01 T02590127  RH  044%=      5-min Rain = 0
KBR1 151552Z 02015KT 26/13 A2992 RMK A01 T02580131  RH  045%=      5-min Rain = 0
KBR1 151553Z 02015KT 26/13 A2992 RMK A01 T02600131  RH  045%=      5-min Rain = 0
KBR1 151554Z 04016KT 26/13 A2992 RMK A01 T02590128  RH  044%=      5-min Rain = 0
KBR1 151555Z 04017KT 26/13 A2992 RMK A01 T02580126  RH  044%=      5-min Rain = 0
KBR1 151556Z 03015KT 26/12 A2992 RMK A01 T02580124  RH  043%=      5-min Rain = 0
KBR1 151557Z 03012KT 26/13 A2992 RMK A01 T02580129  RH  045%=      5-min Rain = 0
KBR1 151558Z 02015KT 26/13 A2992 RMK A01 T02620129  RH  044%=      5-min Rain = 0
KBR1 151559Z 02015KT 26/13 A2992 RMK A01 T02620129  RH  044%=      5-min Rain = 0
KBR1 151600Z 03015KT 26/13 A2992 RMK A01 T02630132  RH  044%=      5-min Rain = 0
KBR1 151601Z 02014KT 26/13 A2992 RMK A01 T02640128  RH  043%=      5-min Rain = 0
KBR1 151602Z 02014KT 26/13 A2992 RMK A01 T02620130  RH  044%=      5-min Rain = 0
KBR1 151603Z 02014KT 26/13 A2992 RMK A01 T02620129  RH  044%=      5-min Rain = 0
KBR1 151604Z 02015G20KT 26/13 A2992 RMK A01 T02640133  RH  044%=      5-min Rain = 0
KBR1 151605Z 03016KT 27/13 A2992 RMK A01 T02660127  RH  042%=      5-min Rain = 0
KBR1 151606Z 04016KT 27/13 A2992 RMK A01 T02660125  RH  042%=      5-min Rain = 0
KBR1 151607Z 04016KT 26/13 A2992 RMK A01 T02640125  RH  042%=      5-min Rain = 0
KBR1 151608Z 04015KT 26/12 A2992 RMK A01 T02620123  RH  042%=      5-min Rain = 0
KBR1 151609Z 03017KT 26/13 A2992 RMK A01 T02610125  RH  043%=      5-min Rain = 0
KBR1 151610Z 03017KT 26/13 A2992 RMK A01 T02600125  RH  043%=      5-min Rain = 0
KBR1 151611Z 03015KT 26/13 A2992 RMK A01 T02590125  RH  043%=      5-min Rain = 0
KBR1 151612Z 02019KT 26/12 A2992 RMK A01 T02590123  RH  043%=      5-min Rain = 0
KBR1 151613Z 02018KT 26/12 A2992 RMK A01 T02610121  RH  042%=      5-min Rain = 0
KBR1 151614Z 02018KT 26/12 A2992 RMK A01 T02620123  RH  042%=      5-min Rain = 0
KBR1 151615Z 03018KT 26/12 A2992 RMK A01 T02610123  RH  042%=      5-min Rain = 0
KBR1 151616Z 03016KT 26/12 A2992 RMK A01 T02610123  RH  042%=      5-min Rain = 0
KBR1 151617Z 03014KT 26/13 A2992 RMK A01 T02610125  RH  043%=      5-min Rain = 0
KBR1 151618Z 04016KT 26/13 A2992 RMK A01 T02630125  RH  042%=      5-min Rain = 0
KBR1 151619Z 04017KT 26/12 A2992 RMK A01 T02630122  RH  041%=      5-min Rain = 0
KBR1 151620Z 02015KT 26/13 A2992 RMK A01 T02620126  RH  043%=      5-min Rain = 0
KBR1 151621Z 02017KT 26/13 A2992 RMK A01 T02620125  RH  042%=      5-min Rain = 0
KBR1 151622Z 02015KT 26/13 A2993 RMK A01 T02620126  RH  043%=      5-min Rain = 0
KBR1 151623Z 01015KT 26/13 A2992 RMK A01 T02640126  RH  042%=      5-min Rain = 0
KBR1 151624Z 02017KT 27/13 A2993 RMK A01 T02650125  RH  042%=      5-min Rain = 0
KBR1 151625Z 03015KT 27/13 A2993 RMK A01 T02650127  RH  042%=      5-min Rain = 0
KBR1 151626Z 03017KT 27/13 A2992 RMK A01 T02670128  RH  042%=      5-min Rain = 0
KBR1 151627Z 02016KT 27/13 A2993 RMK A01 T02680128  RH  042%=      5-min Rain = 0
KBR1 151628Z 03016KT 27/13 A2993 RMK A01 T02690126  RH  041%=      5-min Rain = 0
KBR1 151629Z 04015KT 27/13 A2993 RMK A01 T02680127  RH  042%=      5-min Rain = 0
KBR1 151630Z 03014KT 27/13 A2993 RMK A01 T02660126  RH  042%=      5-min Rain = 0
KBR1 151631Z 03015KT 27/13 A2993 RMK A01 T02650128  RH  043%=      5-min Rain = 0
KBR1 151632Z 04015KT 26/12 A2993 RMK A01 T02640123  RH  042%=      5-min Rain = 0
KBR1 151633Z 05012KT 26/12 A2993 RMK A01 T02640121  RH  041%=      5-min Rain = 0
KBR1 151634Z 04011KT 27/12 A2993 RMK A01 T02650123  RH  041%=      5-min Rain = 0
KBR1 151635Z 03013KT 27/12 A2994 RMK A01 T02670121  RH  040%=      5-min Rain = 0
KBR1 151636Z 03010KT 27/12 A2994 RMK A01 T02670115  RH  039%=      5-min Rain = 0
KBR1 151637Z 03013KT 27/12 A2994 RMK A01 T02670120  RH  040%=      5-min Rain = 0
KBR1 151638Z 04015KT 27/12 A2994 RMK A01 T02670122  RH  040%=      5-min Rain = 0
KBR1 151639Z 04013KT 27/12 A2994 RMK A01 T02670123  RH  041%=      5-min Rain = 0
KBR1 151640Z 03013KT 27/12 A2994 RMK A01 T02670123  RH  041%=      5-min Rain = 0
KBR1 151641Z 02011KT 27/12 A2994 RMK A01 T02680120  RH  040%=      5-min Rain = 0
KBR1 151642Z 03011KT 27/12 A2994 RMK A01 T02690121  RH  040%=      5-min Rain = 0
KBR1 151643Z 03011KT 27/12 A2994 RMK A01 T02690122  RH  040%=      5-min Rain = 0
KBR1 151644Z 03012KT 27/12 A2994 RMK A01 T02700123  RH  040%=      5-min Rain = 0
KBR1 151645Z 03013KT 27/12 A2994 RMK A01 T02710121  RH  039%=      5-min Rain = 0
KBR1 151646Z 03013KT 27/12 A2994 RMK A01 T02720119  RH  039%=      5-min Rain = 0
KBR1 151647Z 04012KT 27/12 A2994 RMK A01 T02710123  RH  040%=      5-min Rain = 0
KBR1 151648Z 05012KT 27/12 A2994 RMK A01 T02710122  RH  040%=      5-min Rain = 0
KBR1 151649Z 04014KT 27/12 A2994 RMK A01 T02720122  RH  039%=      5-min Rain = 0
KBR1 151650Z 04014KT 27/12 A2994 RMK A01 T02740118  RH  038%=      5-min Rain = 0
KBR1 151651Z 04014KT 27/12 A2994 RMK A01 T02740120  RH  038%=      5-min Rain = 0
KBR1 151652Z 05010KT 28/12 A2994 RMK A01 T02750120  RH  038%=      5-min Rain = 0
KBR1 151653Z 04013KT 28/12 A2994 RMK A01 T02760121  RH  038%=      5-min Rain = 0
KBR1 151654Z 03012KT 28/12 A2994 RMK A01 T02760120  RH  038%=      5-min Rain = 0
KBR1 151655Z 02011KT 28/12 A2994 RMK A01 T02780124  RH  039%=      5-min Rain = 0
KBR1 151656Z 01012G17KT 28/12 A2994 RMK A01 T02800118  RH  037%=      5-min Rain = 0
KBR1 151657Z 05015KT 28/12 A2994 RMK A01 T02790118  RH  037%=      5-min Rain = 0
KBR1 151658Z 04013KT 28/12 A2994 RMK A01 T02770121  RH  038%=      5-min Rain = 0
KBR1 151659Z 03010KT 28/13 A2994 RMK A01 T02780125  RH  039%=      5-min Rain = 0
KBR1 151700Z 02014KT 28/12 A2994 RMK A01 T02810122  RH  037%=      5-min Rain = 0
KBR1 151701Z 03013KT 28/12 A2994 RMK A01 T02780120  RH  038%=      5-min Rain = 0
KBR1 151702Z 04013KT 28/12 A2994 RMK A01 T02750120  RH  038%=      5-min Rain = 0
KBR1 151703Z 04012KT 28/13 A2994 RMK A01 T02750125  RH  039%=      5-min Rain = 0
KBR1 151704Z 05012KT 28/12 A2994 RMK A01 T02780123  RH  038%=      5-min Rain = 0
KBR1 151705Z 04014KT 28/12 A2994 RMK A01 T02780122  RH  038%=      5-min Rain = 0
KBR1 151706Z 03014KT 28/12 A2994 RMK A01 T02770120  RH  038%=      5-min Rain = 0
KBR1 151707Z 02011KT 28/12 A2994 RMK A01 T02760121  RH  038%=      5-min Rain = 0
KBR1 151708Z 03010KT 28/12 A2994 RMK A01 T02760122  RH  038%=      5-min Rain = 0
KBR1 151709Z 04010KT 28/12 A2994 RMK A01 T02760121  RH  038%=      5-min Rain = 0
KBR1 151710Z 04010KT 28/12 A2994 RMK A01 T02770123  RH  039%=      5-min Rain = 0
KBR1 151711Z 05013KT 28/12 A2994 RMK A01 T02770120  RH  038%=      5-min Rain = 0
KBR1 151712Z 05011KT 28/12 A2994 RMK A01 T02770117  RH  037%=      5-min Rain = 0
KBR1 151713Z 05014KT 28/11 A2994 RMK A01 T02770114  RH  036%=      5-min Rain = 0
KBR1 151714Z 05012KT 28/11 A2994 RMK A01 T02780113  RH  036%=      5-min Rain = 0
KBR1 151715Z 05012KT 28/12 A2994 RMK A01 T02800117  RH  036%=      5-min Rain = 0
KBR1 151716Z 04013KT 28/12 A2994 RMK A01 T02820118  RH  036%=      5-min Rain = 0
KBR1 151717Z 03012KT 28/12 A2994 RMK A01 T02810116  RH  036%=      5-min Rain = 0
KBR1 151718Z 04010KT 28/12 A2994 RMK A01 T02780117  RH  037%=      5-min Rain = 0
KBR1 151719Z 06013KT 28/12 A2994 RMK A01 T02780116  RH  037%=      5-min Rain = 0
KBR1 151720Z 06013KT 28/11 A2994 RMK A01 T02780112  RH  035%=      5-min Rain = 0
KBR1 151721Z 05012KT 28/11 A2994 RMK A01 T02790112  RH  035%=      5-min Rain = 0
KBR1 151722Z 06014KT 28/12 A2994 RMK A01 T02780118  RH  037%=      5-min Rain = 0
KBR1 151723Z 05013KT 28/12 A2994 RMK A01 T02780118  RH  037%=      5-min Rain = 0
KBR1 151724Z 06013KT 28/12 A2994 RMK A01 T02780121  RH  038%=      5-min Rain = 0
KBR1 151725Z 04011KT 28/12 A2994 RMK A01 T02780119  RH  037%=      5-min Rain = 0
KBR1 151726Z 05015KT 28/12 A2994 RMK A01 T02780117  RH  037%=      5-min Rain = 0
KBR1 151727Z 03013KT 28/11 A2994 RMK A01 T02790111  RH  035%=      5-min Rain = 0
KBR1 151728Z 05010KT 28/11 A2994 RMK A01 T02780113  RH  036%=      5-min Rain = 0
KBR1 151729Z 06016KT 28/11 A2994 RMK A01 T02800112  RH  035%=      5-min Rain = 0
KBR1 151730Z 06015KT 28/11 A2994 RMK A01 T02790108  RH  035%=      5-min Rain = 0
KBR1 151731Z 06013KT 28/11 A2994 RMK A01 T02780109  RH  035%=      5-min Rain = 0
KBR1 151732Z 05013KT 28/11 A2994 RMK A01 T02780109  RH  035%=      5-min Rain = 0
KBR1 151733Z 05011KT 28/11 A2994 RMK A01 T02780114  RH  036%=      5-min Rain = 0
KBR1 151734Z 04013KT 28/11 A2994 RMK A01 T02790110  RH  035%=      5-min Rain = 0
KBR1 151735Z 05011KT 28/12 A2994 RMK A01 T02810116  RH  036%=      5-min Rain = 0
KBR1 151736Z 05010KT 28/12 A2994 RMK A01 T02830118  RH  036%=      5-min Rain = 0
KBR1 151737Z 06011KT 29/12 A2994 RMK A01 T02850118  RH  035%=      5-min Rain = 0
KBR1 151738Z 06014KT 28/12 A2994 RMK A01 T02840115  RH  035%=      5-min Rain = 0
KBR1 151739Z 07012KT 28/11 A2994 RMK A01 T02820113  RH  035%=      5-min Rain = 0
KBR1 151740Z 06012KT 28/11 A2994 RMK A01 T02810113  RH  035%=      5-min Rain = 0
KBR1 151741Z 07012KT 28/11 A2994 RMK A01 T02820113  RH  035%=      5-min Rain = 0
KBR1 151742Z 06012KT 28/11 A2994 RMK A01 T02830112  RH  034%=      5-min Rain = 0
KBR1 151743Z 08009KT 28/12 A2994 RMK A01 T02830118  RH  036%=      5-min Rain = 0
KBR1 151744Z 07013KT 28/12 A2994 RMK A01 T02830124  RH  037%=      5-min Rain = 0
KBR1 151745Z 04014KT 29/12 A2994 RMK A01 T02860122  RH  036%=      5-min Rain = 0
KBR1 151746Z 06013KT 29/12 A2994 RMK A01 T02860118  RH  035%=      5-min Rain = 0
KBR1 151747Z 07010KT 28/11 A2994 RMK A01 T02830113  RH  035%=      5-min Rain = 0
KBR1 151748Z 06012KT 28/12 A2994 RMK A01 T02820118  RH  036%=      5-min Rain = 0
KBR1 151749Z 06013KT 28/12 A2994 RMK A01 T02840116  RH  035%=      5-min Rain = 0
KBR1 151750Z 07011KT 28/11 A2994 RMK A01 T02840110  RH  034%=      5-min Rain = 0
KBR1 151751Z 08009KT 28/11 A2994 RMK A01 T02820110  RH  034%=      5-min Rain = 0
KBR1 151752Z 08012KT 28/11 A2994 RMK A01 T02820113  RH  035%=      5-min Rain = 0
KBR1 151753Z 07010KT 28/11 A2994 RMK A01 T02820114  RH  035%=      5-min Rain = 0
KBR1 151754Z 04010KT 28/12 A2994 RMK A01 T02830123  RH  037%=      5-min Rain = 0
KBR1 151755Z 03012KT 29/12 A2994 RMK A01 T02860116  RH  035%=      5-min Rain = 0
KBR1 151756Z 03012KT 29/11 A2994 RMK A01 T02850114  RH  035%=      5-min Rain = 0
KBR1 151757Z 02013KT 29/12 A2994 RMK A01 T02860121  RH  036%=      5-min Rain = 0
KBR1 151758Z 02012KT 29/12 A2994 RMK A01 T02870119  RH  035%=      5-min Rain = 0
KBR1 151759Z 04011KT 29/12 A2994 RMK A01 T02860120  RH  036%=      5-min Rain = 0
KBR1 151800Z 04011KT 29/12 A2994 RMK A01 T02860119  RH  036%=      5-min Rain = 0
KBR1 151801Z 03008KT 28/12 A2994 RMK A01 T02830117  RH  036%=      5-min Rain = 0
KBR1 151802Z 04010KT 28/12 A2994 RMK A01 T02810122  RH  037%=      5-min Rain = 0
KBR1 151803Z 04014KT 28/12 A2994 RMK A01 T02830122  RH  037%=      5-min Rain = 0
KBR1 151804Z 04010KT 29/11 A2994 RMK A01 T02850113  RH  034%=      5-min Rain = 0
KBR1 151805Z 05010KT 28/12 A2994 RMK A01 T02830120  RH  036%=      5-min Rain = 0
KBR1 151806Z 06009KT 28/11 A2994 RMK A01 T02840114  RH  035%=      5-min Rain = 0
KBR1 151807Z 05010KT 28/12 A2995 RMK A01 T02820118  RH  036%=      5-min Rain = 0
KBR1 151808Z 05009KT 28/12 A2995 RMK A01 T02810117  RH  036%=      5-min Rain = 0
KBR1 151809Z 05012KT 28/12 A2995 RMK A01 T02810120  RH  037%=      5-min Rain = 0
KBR1 151810Z 04010KT 28/12 A2995 RMK A01 T02810121  RH  037%=      5-min Rain = 0
KBR1 151811Z 03010KT 28/12 A2995 RMK A01 T02810124  RH  038%=      5-min Rain = 0
KBR1 151812Z 02011KT 28/12 A2995 RMK A01 T02820119  RH  036%=      5-min Rain = 0
KBR1 151813Z 02009KT 28/12 A2995 RMK A01 T02800119  RH  037%=      5-min Rain = 0
KBR1 151814Z 02008KT 28/12 A2995 RMK A01 T02790120  RH  037%=      5-min Rain = 0
KBR1 151815Z 03008KT 28/12 A2995 RMK A01 T02790122  RH  038%=      5-min Rain = 0
KBR1 151816Z 06010KT 28/13 A2995 RMK A01 T02810125  RH  038%=      5-min Rain = 0
KBR1 151817Z 09011KT 29/12 A2995 RMK A01 T02860124  RH  037%=      5-min Rain = 0
KBR1 151818Z 07008KT 29/12 A2995 RMK A01 T02860120  RH  036%=      5-min Rain = 0
KBR1 151819Z 04010G15KT 29/13 A2995 RMK A01 T02860125  RH  037%=      5-min Rain = 0
KBR1 151820Z 03011KT 29/12 A2995 RMK A01 T02880124  RH  036%=      5-min Rain = 0
KBR1 151821Z 03011KT 29/12 A2995 RMK A01 T02880119  RH  035%=      5-min Rain = 0
KBR1 151822Z 02010KT 29/12 A2995 RMK A01 T02860119  RH  036%=      5-min Rain = 0
KBR1 151823Z 02011KT 29/12 A2995 RMK A01 T02850121  RH  036%=      5-min Rain = 0
KBR1 151824Z 03010KT 29/12 A2995 RMK A01 T02850122  RH  037%=      5-min Rain = 0
KBR1 151825Z 03012KT 29/12 A2995 RMK A01 T02850119  RH  036%=      5-min Rain = 0
KBR1 151826Z 03009KT 29/12 A2995 RMK A01 T02850119  RH  036%=      5-min Rain = 0
KBR1 151827Z 04008KT 28/12 A2995 RMK A01 T02830116  RH  035%=      5-min Rain = 0
KBR1 151828Z 02007KT 28/12 A2995 RMK A01 T02820120  RH  037%=      5-min Rain = 0
KBR1 151829Z 02008KT 28/12 A2995 RMK A01 T02830118  RH  036%=      5-min Rain = 0
KBR1 151830Z 04012KT 28/12 A2995 RMK A01 T02840121  RH  037%=      5-min Rain = 0
KBR1 151831Z 04012KT 29/11 A2994 RMK A01 T02850114  RH  035%=      5-min Rain = 0
KBR1 151832Z 05012KT 29/12 A2994 RMK A01 T02850115  RH  035%=      5-min Rain = 0
KBR1 151833Z 03010KT 29/12 A2994 RMK A01 T02860115  RH  034%=      5-min Rain = 0
KBR1 151834Z 03010KT 29/12 A2994 RMK A01 T02870116  RH  035%=      5-min Rain = 0
KBR1 151835Z 03008KT 29/12 A2994 RMK A01 T02870116  RH  035%=      5-min Rain = 0
KBR1 151836Z 03005KT 29/12 A2994 RMK A01 T02870117  RH  035%=      5-min Rain = 0
KBR1 151837Z 04007KT 29/13 A2994 RMK A01 T02870125  RH  037%=      5-min Rain = 0
KBR1 151838Z 04010KT 29/12 A2994 RMK A01 T02890121  RH  036%=      5-min Rain = 0
KBR1 151839Z 05011KT 29/12 A2994 RMK A01 T02880120  RH  035%=      5-min Rain = 0
KBR1 151840Z 05009G14KT 29/12 A2994 RMK A01 T02870116  RH  035%=      5-min Rain = 0
KBR1 151841Z 04013KT 29/12 A2994 RMK A01 T02860119  RH  036%=      5-min Rain = 0
KBR1 151842Z 03014KT 29/12 A2994 RMK A01 T02860119  RH  035%=      5-min Rain = 0
KBR1 151843Z 04013KT 29/12 A2994 RMK A01 T02860117  RH  035%=      5-min Rain = 0
KBR1 151844Z 05013KT 29/12 A2994 RMK A01 T02870123  RH  036%=      5-min Rain = 0
KBR1 151845Z 05012KT 29/13 A2994 RMK A01 T02910125  RH  036%=      5-min Rain = 0
KBR1 151846Z 05011KT 29/12 A2994 RMK A01 T02930121  RH  035%=      5-min Rain = 0
KBR1 151847Z 06012KT 29/12 A2994 RMK A01 T02930119  RH  034%=      5-min Rain = 0
KBR1 151848Z 05011KT 29/12 A2994 RMK A01 T02930120  RH  034%=      5-min Rain = 0
KBR1 151849Z 04009KT 29/12 A2994 RMK A01 T02920117  RH  034%=      5-min Rain = 0
KBR1 151850Z 06010KT 29/12 A2994 RMK A01 T02910117  RH  034%=      5-min Rain = 0
KBR1 151851Z 06010KT 29/12 A2994 RMK A01 T02900115  RH  034%=      5-min Rain = 0
KBR1 151852Z 05013KT 29/12 A2993 RMK A01 T02880117  RH  035%=      5-min Rain = 0
KBR1 151853Z 05013KT 29/12 A2993 RMK A01 T02880116  RH  034%=      5-min Rain = 0
KBR1 151854Z 05012KT 29/11 A2993 RMK A01 T02880113  RH  034%=      5-min Rain = 0
KBR1 151855Z 05014KT 29/12 A2993 RMK A01 T02880117  RH  035%=      5-min Rain = 0
KBR1 151856Z 05012KT 29/12 A2993 RMK A01 T02910117  RH  034%=      5-min Rain = 0
KBR1 151857Z 05012KT 29/11 A2993 RMK A01 T02920114  RH  033%=      5-min Rain = 0
KBR1 151858Z 06015KT 29/12 A2993 RMK A01 T02910115  RH  034%=      5-min Rain = 0
KBR1 151859Z 06013KT 29/11 A2993 RMK A01 T02890113  RH  034%=      5-min Rain = 0
KBR1 151900Z 04010KT 29/12 A2993 RMK A01 T02880118  RH  035%=      5-min Rain = 0
KBR1 151901Z 03013KT 29/12 A2993 RMK A01 T02880120  RH  035%=      5-min Rain = 0
KBR1 151902Z 03012KT 29/12 A2993 RMK A01 T02890117  RH  034%=      5-min Rain = 0
KBR1 151903Z 04010KT 29/12 A2993 RMK A01 T02880118  RH  035%=      5-min Rain = 0
KBR1 151904Z 04012KT 29/12 A2993 RMK A01 T02870117  RH  035%=      5-min Rain = 0
KBR1 151905Z 05014KT 29/12 A2993 RMK A01 T02860119  RH  036%=      5-min Rain = 0
KBR1 151906Z 05012KT 29/12 A2993 RMK A01 T02860118  RH  035%=      5-min Rain = 0
KBR1 151907Z 05010KT 29/12 A2993 RMK A01 T02850118  RH  035%=      5-min Rain = 0
KBR1 151908Z 04010KT 29/12 A2993 RMK A01 T02860118  RH  035%=      5-min Rain = 0
KBR1 151909Z 05016G22KT 29/12 A2992 RMK A01 T02860121  RH  036%=      5-min Rain = 0
KBR1 151910Z 06015KT 29/12 A2993 RMK A01 T02870117  RH  035%=      5-min Rain = 0
KBR1 151911Z 05015KT 29/12 A2993 RMK A01 T02870116  RH  035%=      5-min Rain = 0
KBR1 151912Z 06012KT 29/12 A2993 RMK A01 T02860115  RH  035%=      5-min Rain = 0
KBR1 151913Z 05014KT 29/12 A2993 RMK A01 T02850118  RH  035%=      5-min Rain = 0
KBR1 151914Z 04015KT 29/12 A2993 RMK A01 T02870116  RH  035%=      5-min Rain = 0
KBR1 151915Z 05013KT 29/12 A2993 RMK A01 T02880116  RH  034%=      5-min Rain = 0
KBR1 151916Z 06015KT 29/12 A2993 RMK A01 T02890118  RH  035%=      5-min Rain = 0
KBR1 151917Z 06013KT 29/12 A2993 RMK A01 T02890119  RH  035%=      5-min Rain = 0
KBR1 151918Z 06013KT 29/12 A2992 RMK A01 T02900119  RH  035%=      5-min Rain = 0
KBR1 151919Z 07013KT 29/12 A2993 RMK A01 T02890118  RH  035%=      5-min Rain = 0
KBR1 151920Z 07012KT 29/12 A2993 RMK A01 T02880116  RH  035%=      5-min Rain = 0
KBR1 151921Z 06013KT 29/12 A2992 RMK A01 T02860117  RH  035%=      5-min Rain = 0
KBR1 151922Z 07015KT 29/12 A2992 RMK A01 T02860120  RH  036%=      5-min Rain = 0
KBR1 151923Z 07016KT 29/12 A2992 RMK A01 T02850116  RH  035%=      5-min Rain = 0
KBR1 151924Z 07013KT 28/12 A2992 RMK A01 T02840116  RH  035%=      5-min Rain = 0
KBR1 151925Z 07017KT 28/12 A2992 RMK A01 T02830116  RH  035%=      5-min Rain = 0
KBR1 151926Z 06017KT 28/11 A2992 RMK A01 T02830114  RH  035%=      5-min Rain = 0
KBR1 151927Z 06015KT 28/11 A2992 RMK A01 T02830114  RH  035%=      5-min Rain = 0
KBR1 151928Z 05013KT 28/12 A2992 RMK A01 T02830116  RH  036%=      5-min Rain = 0
KBR1 151929Z 08014G19KT 29/12 A2992 RMK A01 T02860120  RH  036%=      5-min Rain = 0
KBR1 151930Z 07016KT 29/12 A2992 RMK A01 T02910120  RH  035%=      5-min Rain = 0
KBR1 151931Z 07013KT 29/12 A2992 RMK A01 T02930123  RH  035%=      5-min Rain = 0
KBR1 151932Z 06012KT 30/12 A2992 RMK A01 T02960120  RH  034%=      5-min Rain = 0
KBR1 151933Z 07014KT 30/12 A2992 RMK A01 T02950120  RH  034%=      5-min Rain = 0
KBR1 151934Z 07016KT 29/12 A2992 RMK A01 T02940122  RH  035%=      5-min Rain = 0
KBR1 151935Z 06014KT 29/12 A2992 RMK A01 T02940122  RH  035%=      5-min Rain = 0
KBR1 151936Z 06015KT 29/12 A2992 RMK A01 T02940120  RH  034%=      5-min Rain = 0
KBR1 151937Z 07013KT 29/12 A2992 RMK A01 T02910119  RH  035%=      5-min Rain = 0
KBR1 151938Z 06012KT 29/12 A2992 RMK A01 T02900119  RH  035%=      5-min Rain = 0
KBR1 151939Z 05013KT 29/12 A2992 RMK A01 T02910121  RH  035%=      5-min Rain = 0
KBR1 151940Z 05014KT 29/11 A2992 RMK A01 T02910114  RH  033%=      5-min Rain = 0
KBR1 151941Z 05011KT 29/12 A2992 RMK A01 T02870117  RH  035%=      5-min Rain = 0
KBR1 151942Z 06014KT 29/12 A2992 RMK A01 T02870121  RH  036%=      5-min Rain = 0
KBR1 151943Z 07014KT 29/12 A2992 RMK A01 T02870117  RH  035%=      5-min Rain = 0
KBR1 151944Z 07012KT 29/12 A2992 RMK A01 T02860118  RH  035%=      5-min Rain = 0
KBR1 151945Z 08014KT 29/12 A2993 RMK A01 T02860115  RH  035%=      5-min Rain = 0
KBR1 151946Z 07013KT 28/11 A2993 RMK A01 T02830112  RH  035%=      5-min Rain = 0
KBR1 151947Z 07012KT 28/11 A2993 RMK A01 T02820114  RH  035%=      5-min Rain = 0
KBR1 151948Z 07013KT 28/11 A2993 RMK A01 T02810112  RH  035%=      5-min Rain = 0
KBR1 151949Z 08012KT 28/11 A2992 RMK A01 T02810114  RH  035%=      5-min Rain = 0
KBR1 151950Z 07013KT 28/12 A2992 RMK A01 T02810115  RH  036%=      5-min Rain = 0
KBR1 151951Z 05013KT 28/12 A2992 RMK A01 T02810116  RH  036%=      5-min Rain = 0
KBR1 151952Z 06013KT 28/12 A2992 RMK A01 T02810119  RH  037%=      5-min Rain = 0
KBR1 151953Z 07015KT 28/12 A2992 RMK A01 T02810118  RH  036%=      5-min Rain = 0
KBR1 151954Z 06014KT 28/12 A2992 RMK A01 T02810115  RH  036%=      5-min Rain = 0
KBR1 151955Z 06012KT 28/12 A2992 RMK A01 T02800117  RH  036%=      5-min Rain = 0
KBR1 151956Z 07012G18KT 28/12 A2991 RMK A01 T02790119  RH  037%=      5-min Rain = 0
KBR1 151957Z 06017KT 28/12 A2991 RMK A01 T02790116  RH  036%=      5-min Rain = 0
KBR1 151958Z 06014KT 28/12 A2992 RMK A01 T02790116  RH  036%=      5-min Rain = 0
KBR1 151959Z 06013KT 28/12 A2992 RMK A01 T02790120  RH  037%=      5-min Rain = 0
KBR1 152000Z 06013KT 28/12 A2992 RMK A01 T02790120  RH  037%=      5-min Rain = 0
KBR1 152001Z 07011KT 28/12 A2992 RMK A01 T02790119  RH  037%=      5-min Rain = 0
KBR1 152002Z 06010KT 28/12 A2992 RMK A01 T02790121  RH  037%=      5-min Rain = 0
KBR1 152003Z 06011KT 28/12 A2992 RMK A01 T02790121  RH  038%=      5-min Rain = 0
KBR1 152004Z 06012KT 28/12 A2992 RMK A01 T02790119  RH  037%=      5-min Rain = 0
KBR1 152005Z 05011KT 28/12 A2992 RMK A01 T02800121  RH  037%=      5-min Rain = 0
KBR1 152006Z 04012KT 28/12 A2992 RMK A01 T02810123  RH  037%=      5-min Rain = 0
KBR1 152007Z 04013KT 28/12 A2991 RMK A01 T02830124  RH  037%=      5-min Rain = 0
KBR1 152008Z 04014KT 28/12 A2991 RMK A01 T02840119  RH  036%=      5-min Rain = 0
KBR1 152009Z 04013KT 28/12 A2991 RMK A01 T02840120  RH  036%=      5-min Rain = 0
KBR1 152010Z 05012KT 29/12 A2991 RMK A01 T02860124  RH  037%=      5-min Rain = 0
KBR1 152011Z 05014KT 29/13 A2991 RMK A01 T02880125  RH  036%=      5-min Rain = 0
KBR1 152012Z 05012KT 29/13 A2991 RMK A01 T02910127  RH  036%=      5-min Rain = 0
KBR1 152013Z 05014KT 29/13 A2991 RMK A01 T02930129  RH  037%=      5-min Rain = 0
KBR1 152014Z 06015KT 30/13 A2991 RMK A01 T02950127  RH  036%=      5-min Rain = 0
KBR1 152015Z 06013KT 30/13 A2991 RMK A01 T02950125  RH  035%=      5-min Rain = 0
KBR1 152016Z 06013KT 29/13 A2991 RMK A01 T02940126  RH  035%=      5-min Rain = 0
KBR1 152017Z 07014KT 29/13 A2991 RMK A01 T02940126  RH  035%=      5-min Rain = 0
KBR1 152018Z 06015KT 30/13 A2991 RMK A01 T02960126  RH  035%=      5-min Rain = 0
KBR1 152019Z 06014KT 30/12 A2991 RMK A01 T02950121  RH  034%=      5-min Rain = 0
KBR1 152020Z 06012KT 29/12 A2991 RMK A01 T02920119  RH  034%=      5-min Rain = 0
KBR1 152021Z 05014KT 29/12 A2991 RMK A01 T02910122  RH  035%=      5-min Rain = 0
KBR1 152022Z 05014KT 29/12 A2991 RMK A01 T02910121  RH  035%=      5-min Rain = 0
KBR1 152023Z 04015KT 29/12 A2991 RMK A01 T02920121  RH  035%=      5-min Rain = 0
KBR1 152024Z 05014KT 29/12 A2991 RMK A01 T02930119  RH  034%=      5-min Rain = 0
KBR1 152025Z 06012KT 29/12 A2992 RMK A01 T02930116  RH  034%=      5-min Rain = 0
KBR1 152026Z 07012KT 29/12 A2991 RMK A01 T02910117  RH  034%=      5-min Rain = 0
KBR1 152027Z 07012KT 29/12 A2991 RMK A01 T02910117  RH  034%=      5-min Rain = 0
KBR1 152028Z 06014KT 29/12 A2991 RMK A01 T02910117  RH  034%=      5-min Rain = 0
KBR1 152029Z 05012KT 29/12 A2991 RMK A01 T02910118  RH  034%=      5-min Rain = 0
KBR1 152030Z 05011KT 29/12 A2991 RMK A01 T02910122  RH  035%=      5-min Rain = 0
KBR1 152031Z 04012KT 29/12 A2991 RMK A01 T02930123  RH  035%=      5-min Rain = 0
KBR1 152032Z 06011KT 29/12 A2991 RMK A01 T02940124  RH  035%=      5-min Rain = 0
KBR1 152033Z 08013KT 30/12 A2991 RMK A01 T02960121  RH  034%=      5-min Rain = 0
KBR1 152034Z 07015KT 30/12 A2991 RMK A01 T02960117  RH  033%=      5-min Rain = 0
KBR1 152035Z 05013KT 30/12 A2991 RMK A01 T02950120  RH  034%=      5-min Rain = 0
KBR1 152036Z 06011KT 30/12 A2991 RMK A01 T02950115  RH  033%=      5-min Rain = 0
KBR1 152037Z 06009KT 29/12 A2991 RMK A01 T02940119  RH  034%=      5-min Rain = 0
KBR1 152038Z 07012KT 30/12 A2991 RMK A01 T02950119  RH  034%=      5-min Rain = 0
KBR1 152039Z 07013KT 30/12 A2991 RMK A01 T02960115  RH  033%=      5-min Rain = 0
KBR1 152040Z 07012KT 30/12 A2991 RMK A01 T02960117  RH  033%=      5-min Rain = 0
KBR1 152041Z 07012KT 30/12 A2991 RMK A01 T02960115  RH  033%=      5-min Rain = 0
KBR1 152042Z 08011KT 30/11 A2991 RMK A01 T02950113  RH  032%=      5-min Rain = 0
KBR1 152043Z 07008G14KT 30/12 A2991 RMK A01 T02950118  RH  033%=      5-min Rain = 0
KBR1 152044Z 06012G17KT 30/12 A2991 RMK A01 T02960121  RH  034%=      5-min Rain = 0
KBR1 152045Z 07011KT 30/12 A2991 RMK A01 T02980117  RH  033%=      5-min Rain = 0
KBR1 152046Z 07012KT 30/12 A2991 RMK A01 T02970116  RH  033%=      5-min Rain = 0
KBR1 152047Z 05012KT 30/12 A2991 RMK A01 T02970119  RH  033%=      5-min Rain = 0
KBR1 152048Z 04011KT 30/12 A2991 RMK A01 T02980116  RH  033%=      5-min Rain = 0
KBR1 152049Z 05011KT 30/12 A2991 RMK A01 T02970121  RH  034%=      5-min Rain = 0
KBR1 152050Z 05014KT 30/13 A2991 RMK A01 T02980125  RH  034%=      5-min Rain = 0
KBR1 152051Z 04015KT 30/12 A2991 RMK A01 T02990122  RH  034%=      5-min Rain = 0
KBR1 152052Z 03014KT 30/12 A2991 RMK A01 T02970117  RH  033%=      5-min Rain = 0
KBR1 152053Z 04013KT 29/12 A2991 RMK A01 T02940118  RH  034%=      5-min Rain = 0
KBR1 152054Z 04010KT 29/12 A2991 RMK A01 T02910116  RH  034%=      5-min Rain = 0
KBR1 152055Z 04012KT 29/12 A2991 RMK A01 T02910117  RH  034%=      5-min Rain = 0
KBR1 152056Z 05013KT 29/11 A2991 RMK A01 T02900114  RH  034%=      5-min Rain = 0
KBR1 152057Z 05011KT 29/11 A2991 RMK A01 T02900114  RH  034%=      5-min Rain = 0
KBR1 152058Z 05012KT 29/11 A2991 RMK A01 T02890114  RH  034%=      5-min Rain = 0
KBR1 152059Z 05012KT 29/11 A2991 RMK A01 T02890112  RH  033%=      5-min Rain = 0
KBR1 152100Z 05011KT 29/11 A2991 RMK A01 T02890111  RH  033%=      5-min Rain = 0
KBR1 152101Z 06010KT 29/11 A2991 RMK A01 T02890113  RH  034%=      5-min Rain = 0
KBR1 152102Z 05009KT 29/12 A2991 RMK A01 T02890115  RH  034%=      5-min Rain = 0
KBR1 152103Z 05011KT 29/12 A2991 RMK A01 T02900116  RH  034%=      5-min Rain = 0
KBR1 152104Z 06012KT 29/12 A2991 RMK A01 T02910117  RH  034%=      5-min Rain = 0
KBR1 152105Z 06013KT 29/12 A2991 RMK A01 T02910115  RH  034%=      5-min Rain = 0
KBR1 152106Z 07014KT 29/11 A2991 RMK A01 T02910112  RH  033%=      5-min Rain = 0
KBR1 152107Z 07011KT 29/12 A2991 RMK A01 T02910115  RH  034%=      5-min Rain = 0
KBR1 152108Z 06011KT 29/11 A2991 RMK A01 T02920111  RH  033%=      5-min Rain = 0
KBR1 152109Z 07010KT 29/11 A2991 RMK A01 T02920114  RH  033%=      5-min Rain = 0
KBR1 152110Z 06013KT 29/12 A2991 RMK A01 T02930118  RH  034%=      5-min Rain = 0
KBR1 152111Z 06012KT 29/12 A2991 RMK A01 T02930115  RH  033%=      5-min Rain = 0
KBR1 152112Z 07012KT 29/12 A2991 RMK A01 T02940116  RH  033%=      5-min Rain = 0
KBR1 152113Z 07011KT 29/12 A2991 RMK A01 T02940118  RH  034%=      5-min Rain = 0
KBR1 152114Z 06014KT 30/12 A2991 RMK A01 T02950120  RH  034%=      5-min Rain = 0
KBR1 152115Z 07014KT 30/12 A2991 RMK A01 T02960119  RH  034%=      5-min Rain = 0
KBR1 152116Z 07016KT 30/11 A2991 RMK A01 T02950114  RH  033%=      5-min Rain = 0
KBR1 152117Z 07015KT 29/11 A2991 RMK A01 T02930113  RH  033%=      5-min Rain = 0
KBR1 152118Z 08015KT 29/11 A2991 RMK A01 T02920113  RH  033%=      5-min Rain = 0
KBR1 152119Z 08013KT 29/12 A2991 RMK A01 T02910115  RH  034%=      5-min Rain = 0
KBR1 152120Z 08013KT 29/12 A2991 RMK A01 T02910116  RH  034%=      5-min Rain = 0
KBR1 152121Z 08012KT 29/11 A2991 RMK A01 T02920113  RH  033%=      5-min Rain = 0
KBR1 152122Z 07010KT 29/12 A2991 RMK A01 T02910115  RH  034%=      5-min Rain = 0
KBR1 152123Z 07011KT 29/11 A2991 RMK A01 T02910112  RH  033%=      5-min Rain = 0
KBR1 152124Z 07010KT 29/11 A299 RMK A01 T02910112  RH  033%=      5-min Rain = 0
KBR1 152125Z 07008KT 29/11 A299 RMK A01 T02900114  RH  034%=      5-min Rain = 0
KBR1 152126Z 08014KT 29/12 A299 RMK A01 T02900115  RH  034%=      5-min Rain = 0
KBR1 152127Z 08012KT 29/11 A299 RMK A01 T02900112  RH  033%=      5-min Rain = 0
KBR1 152128Z 09010KT 29/12 A299 RMK A01 T02900119  RH  035%=      5-min Rain = 0
KBR1 152129Z 06011KT 29/12 A299 RMK A01 T02900116  RH  034%=      5-min Rain = 0
KBR1 152130Z 07013KT 29/12 A299 RMK A01 T02900115  RH  034%=      5-min Rain = 0
KBR1 152131Z 07011KT 29/12 A299 RMK A01 T02900115  RH  034%=      5-min Rain = 0
KBR1 152132Z 07014G19KT 29/12 A299 RMK A01 T02900119  RH  035%=      5-min Rain = 0
KBR1 152133Z 08014KT 29/12 A299 RMK A01 T02900117  RH  034%=      5-min Rain = 0
KBR1 152134Z 08012KT 29/12 A299 RMK A01 T02890115  RH  034%=      5-min Rain = 0
KBR1 152135Z 08012G17KT 29/12 A299 RMK A01 T02880119  RH  035%=      5-min Rain = 0
KBR1 152136Z 09014KT 29/12 A299 RMK A01 T02880118  RH  035%=      5-min Rain = 0
KBR1 152137Z 08015KT 29/12 A299 RMK A01 T02870118  RH  035%=      5-min Rain = 0
KBR1 152138Z 09013KT 29/12 A299 RMK A01 T02860118  RH  035%=      5-min Rain = 0
KBR1 152139Z 09014KT 29/12 A299 RMK A01 T02860120  RH  036%=      5-min Rain = 0
KBR1 152140Z 10014KT 29/12 A299 RMK A01 T02860117  RH  035%=      5-min Rain = 0
KBR1 152141Z 09012KT 29/12 A299 RMK A01 T02860118  RH  035%=      5-min Rain = 0
KBR1 152142Z 09014KT 29/12 A299 RMK A01 T02860119  RH  035%=      5-min Rain = 0
KBR1 152143Z 08014KT 29/12 A2989 RMK A01 T02850120  RH  036%=      5-min Rain = 0
KBR1 152144Z 09013KT 29/12 A2989 RMK A01 T02860118  RH  035%=      5-min Rain = 0
KBR1 152145Z 08014KT 29/12 A2989 RMK A01 T02850120  RH  036%=      5-min Rain = 0
KBR1 152146Z 08014KT 29/12 A2989 RMK A01 T02850118  RH  035%=      5-min Rain = 0
KBR1 152147Z 08015KT 29/12 A2989 RMK A01 T02850116  RH  035%=      5-min Rain = 0
KBR1 152148Z 08014KT 28/12 A2989 RMK A01 T02840116  RH  035%=      5-min Rain = 0
KBR1 152149Z 09014KT 28/12 A2989 RMK A01 T02840117  RH  035%=      5-min Rain = 0
KBR1 152150Z 08015KT 28/12 A2989 RMK A01 T02840115  RH  035%=      5-min Rain = 0
KBR1 152151Z 08013KT 28/12 A2989 RMK A01 T02840116  RH  035%=      5-min Rain = 0
KBR1 152152Z 09013KT 29/12 A2989 RMK A01 T02850118  RH  036%=      5-min Rain = 0
KBR1 152153Z 09013KT 29/12 A2989 RMK A01 T02850116  RH  035%=      5-min Rain = 0
KBR1 152154Z 09014KT 29/12 A2989 RMK A01 T02850115  RH  035%=      5-min Rain = 0
KBR1 152155Z 08014KT 29/12 A2989 RMK A01 T02850115  RH  035%=      5-min Rain = 0
KBR1 152156Z 09013KT 29/12 A2989 RMK A01 T02850116  RH  035%=      5-min Rain = 0
KBR1 152157Z 08013KT 29/12 A2989 RMK A01 T02860117  RH  035%=      5-min Rain = 0
KBR1 152158Z 09013KT 29/12 A2989 RMK A01 T02870117  RH  035%=      5-min Rain = 0
KBR1 152159Z 08014KT 29/12 A2989 RMK A01 T02870117  RH  035%=      5-min Rain = 0
KBR1 152200Z 08013KT 29/11 A2989 RMK A01 T02880114  RH  034%=      5-min Rain = 0
KBR1 152201Z 08013KT 29/12 A2989 RMK A01 T02880116  RH  035%=      5-min Rain = 0
KBR1 152202Z 07014KT 29/11 A2989 RMK A01 T02880112  RH  034%=      5-min Rain = 0
KBR1 152203Z 07015KT 29/11 A2989 RMK A01 T02880113  RH  034%=      5-min Rain = 0
KBR1 152204Z 08016KT 29/12 A2988 RMK A01 T02880116  RH  035%=      5-min Rain = 0
KBR1 152205Z 08014KT 29/12 A2988 RMK A01 T02870118  RH  035%=      5-min Rain = 0
KBR1 152206Z 08015KT 29/12 A2988 RMK A01 T02880115  RH  034%=      5-min Rain = 0
KBR1 152207Z 08012KT 29/12 A2988 RMK A01 T02870117  RH  035%=      5-min Rain = 0
KBR1 152208Z 08012KT 29/12 A2988 RMK A01 T02890118  RH  035%=      5-min Rain = 0
KBR1 152209Z 08011KT 29/12 A2988 RMK A01 T02910119  RH  034%=      5-min Rain = 0
KBR1 152210Z 09012KT 29/12 A2988 RMK A01 T02930119  RH  034%=      5-min Rain = 0
KBR1 152211Z 08011KT 30/12 A2988 RMK A01 T02950122  RH  035%=      5-min Rain = 0
KBR1 152212Z 08013KT 30/12 A2988 RMK A01 T02990122  RH  034%=      5-min Rain = 0
KBR1 152213Z 09013KT 30/12 A2988 RMK A01 T03000117  RH  032%=      5-min Rain = 0
KBR1 152214Z 08013KT 30/12 A2988 RMK A01 T02980118  RH  033%=      5-min Rain = 0
KBR1 152215Z 07016KT 30/12 A2988 RMK A01 T02980120  RH  034%=      5-min Rain = 0
KBR1 152216Z 08015KT 30/12 A2988 RMK A01 T02990122  RH  034%=      5-min Rain = 0
KBR1 152217Z 08016KT 30/12 A2988 RMK A01 T03000122  RH  034%=      5-min Rain = 0
KBR1 152218Z 08014KT 30/12 A2988 RMK A01 T02990123  RH  034%=      5-min Rain = 0
KBR1 152219Z 08015KT 30/12 A2988 RMK A01 T02990121  RH  033%=      5-min Rain = 0
KBR1 152220Z 07015KT 30/12 A2988 RMK A01 T02990117  RH  033%=      5-min Rain = 0
KBR1 152221Z 08014KT 30/12 A2988 RMK A01 T02980119  RH  033%=      5-min Rain = 0
KBR1 152222Z 07016KT 30/12 A2988 RMK A01 T02980117  RH  033%=      5-min Rain = 0
KBR1 152223Z 07013KT 30/12 A2988 RMK A01 T02980117  RH  033%=      5-min Rain = 0
KBR1 152224Z 07014KT 30/12 A2988 RMK A01 T02980117  RH  033%=      5-min Rain = 0
KBR1 152225Z 08014KT 30/12 A2988 RMK A01 T02990123  RH  034%=      5-min Rain = 0
KBR1 152226Z 08014KT 30/12 A2988 RMK A01 T03010119  RH  033%=      5-min Rain = 0
KBR1 152227Z 06015KT 30/12 A2988 RMK A01 T03000117  RH  032%=      5-min Rain = 0
KBR1 152228Z 07012KT 30/12 A2988 RMK A01 T02970119  RH  033%=      5-min Rain = 0
KBR1 152229Z 07015KT 30/13 A2987 RMK A01 T03000127  RH  035%=      5-min Rain = 0
KBR1 152230Z 08015KT 30/12 A2988 RMK A01 T03030121  RH  033%=      5-min Rain = 0
KBR1 152231Z 08014KT 30/12 A2988 RMK A01 T03010119  RH  033%=      5-min Rain = 0
KBR1 152232Z 07016KT 30/12 A2988 RMK A01 T03000124  RH  034%=      5-min Rain = 0
KBR1 152233Z 07015KT 30/12 A2988 RMK A01 T02980124  RH  034%=      5-min Rain = 0
KBR1 152234Z 07011KT 30/13 A2988 RMK A01 T02990126  RH  035%=      5-min Rain = 0
KBR1 152235Z 08014KT 30/13 A2988 RMK A01 T03020130  RH  035%=      5-min Rain = 0
KBR1 152236Z 08015KT 30/13 A2987 RMK A01 T03010126  RH  034%=      5-min Rain = 0
KBR1 152237Z 07014KT 30/13 A2987 RMK A01 T03000128  RH  035%=      5-min Rain = 0
KBR1 152238Z 07014KT 30/12 A2987 RMK A01 T03000124  RH  034%=      5-min Rain = 0
KBR1 152239Z 07018KT 30/12 A2987 RMK A01 T02990124  RH  034%=      5-min Rain = 0
KBR1 152240Z 07017KT 30/12 A2987 RMK A01 T02990122  RH  034%=      5-min Rain = 0
KBR1 152241Z 07016KT 30/12 A2987 RMK A01 T02970120  RH  034%=      5-min Rain = 0
KBR1 152242Z 05018KT 30/12 A2987 RMK A01 T02960123  RH  034%=      5-min Rain = 0
KBR1 152243Z 06016KT 30/12 A2987 RMK A01 T02970124  RH  034%=      5-min Rain = 0
KBR1 152244Z 07017KT 30/12 A2987 RMK A01 T02980122  RH  034%=      5-min Rain = 0
KBR1 152245Z 07017KT 30/12 A2987 RMK A01 T02970123  RH  034%=      5-min Rain = 0
KBR1 152246Z 07018KT 30/12 A2987 RMK A01 T02960122  RH  034%=      5-min Rain = 0
KBR1 152247Z 07016KT 30/12 A2988 RMK A01 T02960124  RH  035%=      5-min Rain = 0
KBR1 152248Z 07018KT 30/12 A2988 RMK A01 T02980122  RH  034%=      5-min Rain = 0
KBR1 152249Z 08016KT 30/12 A2988 RMK A01 T02970123  RH  034%=      5-min Rain = 0
KBR1 152250Z 07015KT 30/12 A2988 RMK A01 T02970123  RH  034%=      5-min Rain = 0
KBR1 152251Z 08016KT 30/13 A2988 RMK A01 T02990129  RH  035%=      5-min Rain = 0
KBR1 152252Z 07014KT 30/13 A2988 RMK A01 T03020126  RH  034%=      5-min Rain = 0
KBR1 152253Z 07012G17KT 30/13 A2989 RMK A01 T03030131  RH  035%=      5-min Rain = 0
KBR1 152254Z 06016KT 31/13 A2989 RMK A01 T03070130  RH  034%=      5-min Rain = 0
KBR1 152255Z 07015KT 31/12 A2989 RMK A01 T03050122  RH  033%=      5-min Rain = 0
KBR1 152256Z 07017KT 30/12 A2989 RMK A01 T03000123  RH  034%=      5-min Rain = 0
KBR1 152257Z 08014KT 30/13 A2989 RMK A01 T02990127  RH  035%=      5-min Rain = 0
KBR1 152258Z 09018KT 30/13 A2989 RMK A01 T03010127  RH  034%=      5-min Rain = 0
KBR1 152259Z 09018KT 30/12 A2989 RMK A01 T03000124  RH  034%=      5-min Rain = 0
KBR1 152300Z 09016G23KT 30/13 A2989 RMK A01 T02980126  RH  035%=      5-min Rain = 0
KBR1 152301Z 08019KT 30/12 A2989 RMK A01 T02980123  RH  034%=      5-min Rain = 0
KBR1 152302Z 08018KT 30/12 A2989 RMK A01 T02970121  RH  034%=      5-min Rain = 0
KBR1 152303Z 08017KT 30/12 A2989 RMK A01 T02950120  RH  034%=      5-min Rain = 0
KBR1 152304Z 09017KT 29/12 A2989 RMK A01 T02930123  RH  035%=      5-min Rain = 0
KBR1 152305Z 09017KT 29/13 A299 RMK A01 T02930125  RH  036%=      5-min Rain = 0
KBR1 152306Z 09015G20KT 29/13 A299 RMK A01 T02940130  RH  037%=      5-min Rain = 0
KBR1 152307Z 08017KT 30/13 A299 RMK A01 T02950129  RH  036%=      5-min Rain = 0
KBR1 152308Z 08016KT 29/13 A299 RMK A01 T02940133  RH  037%=      5-min Rain = 0
KBR1 152309Z 08013G19KT 30/13 A299 RMK A01 T02950132  RH  037%=      5-min Rain = 0
KBR1 152310Z 10015KT 30/13 A299 RMK A01 T02950134  RH  037%=      5-min Rain = 0
KBR1 152311Z 09016KT 30/13 A299 RMK A01 T02960134  RH  037%=      5-min Rain = 0
KBR1 152312Z 08016KT 30/13 A299 RMK A01 T02950131  RH  037%=      5-min Rain = 0
KBR1 152313Z 08017KT 29/13 A299 RMK A01 T02940132  RH  037%=      5-min Rain = 0
KBR1 152314Z 08018KT 29/13 A299 RMK A01 T02920131  RH  037%=      5-min Rain = 0
KBR1 152315Z 08018KT 29/13 A299 RMK A01 T02920131  RH  037%=      5-min Rain = 0
KBR1 152316Z 09016KT 29/13 A299 RMK A01 T02900130  RH  037%=      5-min Rain = 0
KBR1 152317Z 09016KT 29/14 A299 RMK A01 T02890135  RH  039%=      5-min Rain = 0
KBR1 152318Z 09015KT 29/13 A299 RMK A01 T02890133  RH  038%=      5-min Rain = 0
KBR1 152319Z 08016KT 29/13 A299 RMK A01 T02880132  RH  038%=      5-min Rain = 0
KBR1 152320Z 08015KT 29/14 A299 RMK A01 T02880136  RH  039%=      5-min Rain = 0
KBR1 152321Z 08017KT 29/14 A299 RMK A01 T02890137  RH  039%=      5-min Rain = 0
KBR1 152322Z 08017KT 29/13 A299 RMK A01 T02890129  RH  037%=      5-min Rain = 0
KBR1 152323Z 08016KT 29/13 A299 RMK A01 T02880129  RH  038%=      5-min Rain = 0
KBR1 152324Z 08017KT 29/13 A2989 RMK A01 T02880129  RH  037%=      5-min Rain = 0
KBR1 152325Z 08015KT 29/13 A2989 RMK A01 T02890129  RH  037%=      5-min Rain = 0
KBR1 152326Z 08016KT 29/13 A2989 RMK A01 T02880132  RH  038%=      5-min Rain = 0
KBR1 152327Z 08017KT 29/14 A2989 RMK A01 T02880135  RH  039%=      5-min Rain = 0
KBR1 152328Z 08017KT 29/14 A2989 RMK A01 T02880140  RH  040%=      5-min Rain = 0
KBR1 152329Z 08018KT 29/14 A2989 RMK A01 T02870139  RH  040%=      5-min Rain = 0
KBR1 152330Z 08016KT 29/14 A2989 RMK A01 T02870139  RH  040%=      5-min Rain = 0
KBR1 152331Z 08017KT 29/14 A2989 RMK A01 T02850140  RH  041%=      5-min Rain = 0
KBR1 152332Z 08016KT 28/14 A2989 RMK A01 T02830140  RH  042%=      5-min Rain = 0
KBR1 152333Z 07018KT 28/14 A2989 RMK A01 T02830141  RH  042%=      5-min Rain = 0
KBR1 152334Z 07016KT 28/14 A2989 RMK A01 T02810141  RH  042%=      5-min Rain = 0
KBR1 152335Z 08014KT 28/14 A2989 RMK A01 T02800143  RH  043%=      5-min Rain = 0
KBR1 152336Z 08017KT 28/14 A2989 RMK A01 T02800142  RH  043%=      5-min Rain = 0
KBR1 152337Z 08018KT 28/14 A2989 RMK A01 T02790140  RH  043%=      5-min Rain = 0
KBR1 152338Z 07013KT 28/14 A2989 RMK A01 T02780141  RH  043%=      5-min Rain = 0
KBR1 152339Z 07013KT 28/14 A2989 RMK A01 T02780144  RH  044%=      5-min Rain = 0
KBR1 152340Z 07016G21KT 28/15 A2989 RMK A01 T02770145  RH  044%=      5-min Rain = 0
KBR1 152341Z 07017KT 28/14 A2989 RMK A01 T02770143  RH  044%=      5-min Rain = 0
KBR1 152342Z 06018KT 28/15 A2989 RMK A01 T02760145  RH  045%=      5-min Rain = 0
KBR1 152343Z 07016KT 28/15 A2989 RMK A01 T02750147  RH  046%=      5-min Rain = 0
KBR1 152344Z 08017KT 27/15 A2989 RMK A01 T02740147  RH  046%=      5-min Rain = 0
KBR1 152345Z 08014KT 27/15 A2989 RMK A01 T02730148  RH  046%=      5-min Rain = 0
KBR1 152346Z 08016G21KT 27/15 A2989 RMK A01 T02730148  RH  046%=      5-min Rain = 0
KBR1 152347Z 07019KT 27/15 A2989 RMK A01 T02720147  RH  046%=      5-min Rain = 0
KBR1 152348Z 07018KT 27/15 A2989 RMK A01 T02720146  RH  046%=      5-min Rain = 0
KBR1 152349Z 08018KT 27/15 A2989 RMK A01 T02720147  RH  046%=      5-min Rain = 0
KBR1 152350Z 07017KT 27/15 A2989 RMK A01 T02720147  RH  046%=      5-min Rain = 0
KBR1 152351Z 07017KT 27/15 A2989 RMK A01 T02710146  RH  046%=      5-min Rain = 0
KBR1 152352Z 06015KT 27/15 A2989 RMK A01 T02710146  RH  046%=      5-min Rain = 0
KBR1 152353Z 06012KT 27/15 A2989 RMK A01 T02710148  RH  047%=      5-min Rain = 0
KBR1 152354Z 06014KT 27/15 A2989 RMK A01 T02710147  RH  047%=      5-min Rain = 0
KBR1 152355Z 06014KT 27/15 A2989 RMK A01 T02710147  RH  047%=      5-min Rain = 0
KBR1 152356Z 07014KT 27/15 A2989 RMK A01 T02700147  RH  047%=      5-min Rain = 0
KBR1 152357Z 06011KT 27/15 A2989 RMK A01 T02700148  RH  047%=      5-min Rain = 0
KBR1 152358Z 06013KT 27/15 A2989 RMK A01 T02700148  RH  047%=      5-min Rain = 0
KBR1 152359Z 06016KT 27/15 A2989 RMK A01 T02700146  RH  047%=      5-min Rain = 0
KBR1 160000Z 06014G19KT 27/15 A2989 RMK A01 T02700146  RH  047%=      5-min Rain = 0
KBR1 160001Z 06014KT 27/15 A2989 RMK A01 T02700148  RH  047%=      5-min Rain = 0
KBR1 160002Z 07015KT 27/15 A2989 RMK A01 T02700147  RH  047%=      5-min Rain = 0
KBR1 160003Z 07013KT 27/15 A2989 RMK A01 T02700147  RH  047%=      5-min Rain = 0
KBR1 160004Z 07014KT 27/15 A2989 RMK A01 T02700146  RH  047%=      5-min Rain = 0
KBR1 160005Z 07014KT 27/15 A2989 RMK A01 T02700146  RH  047%=      5-min Rain = 0
KBR1 160006Z 07014KT 27/15 A2989 RMK A01 T02700147  RH  047%=      5-min Rain = 0
KBR1 160007Z 07014G19KT 27/15 A2988 RMK A01 T02700147  RH  047%=      5-min Rain = 0
KBR1 160008Z 06015KT 27/15 A2988 RMK A01 T02690147  RH  047%=      5-min Rain = 0
KBR1 160009Z 07016KT 27/15 A2988 RMK A01 T02690146  RH  047%=      5-min Rain = 0
KBR1 160010Z 07016KT 27/15 A2988 RMK A01 T02690145  RH  047%=      5-min Rain = 0
KBR1 160011Z 07016KT 27/15 A2988 RMK A01 T02680146  RH  047%=      5-min Rain = 0
KBR1 160012Z 08016KT 27/15 A2988 RMK A01 T02680147  RH  047%=      5-min Rain = 0
KBR1 160013Z 07015KT 27/15 A2988 RMK A01 T02680147  RH  048%=      5-min Rain = 0
KBR1 160014Z 07015KT 27/15 A2988 RMK A01 T02670147  RH  048%=      5-min Rain = 0
KBR1 160015Z 07012KT 27/15 A2988 RMK A01 T02670148  RH  048%=      5-min Rain = 0
KBR1 160016Z 08012KT 27/15 A2989 RMK A01 T02670148  RH  048%=      5-min Rain = 0
KBR1 160017Z 07012KT 27/15 A2989 RMK A01 T02660149  RH  048%=      5-min Rain = 0
KBR1 160018Z 07010KT 27/15 A2989 RMK A01 T02660149  RH  049%=      5-min Rain = 0
KBR1 160019Z 07012KT 27/15 A2989 RMK A01 T02650149  RH  049%=      5-min Rain = 0
KBR1 160020Z 07011KT 27/15 A2989 RMK A01 T02650149  RH  049%=      5-min Rain = 0
KBR1 160021Z 07011KT 27/15 A2989 RMK A01 T02650149  RH  049%=      5-min Rain = 0
KBR1 160022Z 06011KT 26/15 A2989 RMK A01 T02640149  RH  049%=      5-min Rain = 0
KBR1 160023Z 06009KT 26/15 A299 RMK A01 T02640149  RH  049%=      5-min Rain = 0
KBR1 160024Z 06010KT 26/15 A299 RMK A01 T02640149  RH  049%=      5-min Rain = 0
KBR1 160025Z 04008KT 26/15 A299 RMK A01 T02630149  RH  049%=      5-min Rain = 0
KBR1 160026Z 02007KT 26/15 A2991 RMK A01 T02630150  RH  050%=      5-min Rain = 0
KBR1 160027Z 36007KT 26/15 A2991 RMK A01 T02620150  RH  050%=      5-min Rain = 0
KBR1 160028Z 35009KT 26/15 A2992 RMK A01 T02620149  RH  050%=      5-min Rain = 0
KBR1 160029Z 34012KT 26/15 A2992 RMK A01 T02620149  RH  050%=      5-min Rain = 0
KBR1 160030Z 35024G33KT 26/13 A2993 RMK A01 T02610131  RH  045%=      5-min Rain = 0
KBR1 160031Z 34024KT 25/08 A2994 RMK A01 T02450082  RH  035%=      5-min Rain = 0
KBR1 160032Z 34021KT 23/08 A2994 RMK A01 T02320080  RH  038%=      5-min Rain = 0
KBR1 160033Z 33017G24KT 23/08 A2993 RMK A01 T02260079  RH  039%=      5-min Rain = 0
KBR1 160034Z 33022G28KT 22/08 A2993 RMK A01 T02240081  RH  040%=      5-min Rain = 0
KBR1 160035Z 33022G28KT 22/08 A2993 RMK A01 T02240082  RH  040%=      5-min Rain = 0
KBR1 160036Z 32021G26KT 22/08 A2993 RMK A01 T02230083  RH  041%=      5-min Rain = 0
KBR1 160037Z 33026KT 22/09 A2994 RMK A01 T02240087  RH  042%=      5-min Rain = 0
KBR1 160038Z 33026KT 23/08 A2994 RMK A01 T02250084  RH  040%=      5-min Rain = 0
KBR1 160039Z 32027G32KT 23/08 A2994 RMK A01 T02250083  RH  040%=      5-min Rain = 0
KBR1 160040Z 33020G28KT 22/09 A2994 RMK A01 T02240085  RH  041%=      5-min Rain = 0
KBR1 160041Z 34020G26KT 22/08 A2994 RMK A01 T02240082  RH  040%=      5-min Rain = 0
KBR1 160042Z 00015KT 22/08 A2994 RMK A01 T02240083  RH  040%=      5-min Rain = 0
KBR1 160043Z 35014KT 22/08 A2994 RMK A01 T02240084  RH  041%=      5-min Rain = 0
KBR1 160044Z 34016G21KT 22/08 A2994 RMK A01 T02220082  RH  041%=      5-min Rain = 0
KBR1 160045Z 33019KT 22/08 A2994 RMK A01 T02210083  RH  041%=      5-min Rain = 0
KBR1 160046Z 34022KT 22/09 A2993 RMK A01 T02190085  RH  042%=      5-min Rain = 0
KBR1 160047Z 34024KT 22/09 A2993 RMK A01 T02160085  RH  043%=      5-min Rain = 0
KBR1 160048Z 34024KT 21/09 A2994 RMK A01 T02140086  RH  044%=      5-min Rain = 0
KBR1 160049Z 34024KT 21/09 A2994 RMK A01 T02130086  RH  044%=      5-min Rain = 0
KBR1 160050Z 34021KT 21/09 A2994 RMK A01 T02120087  RH  045%=      5-min Rain = 0
KBR1 160051Z 34019KT 21/09 A2994 RMK A01 T02110087  RH  045%=      5-min Rain = 0
KBR1 160052Z 35022G28KT 21/09 A2993 RMK A01 T02110088  RH  045%=      5-min Rain = 0
KBR1 160053Z 34023G30KT 21/09 A2993 RMK A01 T02110088  RH  045%=      5-min Rain = 0
KBR1 160054Z 34018KT 21/09 A2993 RMK A01 T02100089  RH  046%=      5-min Rain = 0
KBR1 160055Z 34018G23KT 21/09 A2993 RMK A01 T02100090  RH  046%=      5-min Rain = 0
KBR1 160056Z 33022KT 21/09 A2993 RMK A01 T02100090  RH  046%=      5-min Rain = 0
KBR1 160057Z 33021KT 21/09 A2993 RMK A01 T02080091  RH  047%=      5-min Rain = 0
KBR1 160058Z 32017KT 21/09 A2993 RMK A01 T02070092  RH  048%=      5-min Rain = 0
KBR1 160059Z 33016KT 21/09 A2993 RMK A01 T02060093  RH  048%=      5-min Rain = 0
KBR1 160100Z 33016G21KT 21/09 A2992 RMK A01 T02050094  RH  049%=      5-min Rain = 0
KBR1 160101Z 32021KT 21/10 A2992 RMK A01 T02050095  RH  049%=      5-min Rain = 0
KBR1 160102Z 32019G24KT 21/10 A2992 RMK A01 T02050095  RH  049%=      5-min Rain = 0
KBR1 160103Z 32018KT 21/10 A2991 RMK A01 T02050095  RH  049%=      5-min Rain = 0
KBR1 160104Z 32018KT 21/10 A2991 RMK A01 T02050095  RH  049%=      5-min Rain = 0
KBR1 160105Z 32022KT 21/09 A2991 RMK A01 T02050094  RH  049%=      5-min Rain = 0
KBR1 160106Z 32019G24KT 21/09 A299 RMK A01 T02060094  RH  049%=      5-min Rain = 0
KBR1 160107Z 33019KT 21/10 A299 RMK A01 T02070095  RH  049%=      5-min Rain = 0
KBR1 160108Z 33021KT 21/10 A299 RMK A01 T02070096  RH  049%=      5-min Rain = 0
KBR1 160109Z 33019KT 21/10 A299 RMK A01 T02070099  RH  050%=      5-min Rain = 0
KBR1 160110Z 33019KT 21/10 A299 RMK A01 T02050104  RH  052%=      5-min Rain = 0
KBR1 160111Z 32017G22KT 20/11 A299 RMK A01 T02020113  RH  057%=      5-min Rain = 0
KBR1 160112Z 33020G25KT 20/12 A2989 RMK A01 T01970120  RH  061%=      5-min Rain = 0
KBR1 160113Z 32020KT 19/12 A2989 RMK A01 T01920121  RH  064%=      5-min Rain = 0
KBR1 160114Z 31019KT 19/13 A2989 RMK A01 T01870126  RH  067%=      5-min Rain = 0.02
KBR1 160115Z 30020KT 18/13 A2989 RMK A01 T01820130  RH  072%=      5-min Rain = 0.02
KBR1 160116Z 31019KT 18/13 A2988 RMK A01 T01750131  RH  075%=      5-min Rain = 0.02
KBR1 160117Z 31020G26KT 17/13 A2988 RMK A01 T01730130  RH  076%=      5-min Rain = 0.01
KBR1 160118Z 30020KT 17/13 A2988 RMK A01 T01720129  RH  076%=      5-min Rain = 0.01
KBR1 160119Z 30018KT 17/13 A2988 RMK A01 T01710132  RH  078%=      5-min Rain = 0
KBR1 160120Z 29020KT 17/13 A2988 RMK A01 T01700133  RH  079%=      5-min Rain = 0.01
KBR1 160121Z 29020KT 17/13 A2989 RMK A01 T01690133  RH  079%=      5-min Rain = 0.02
KBR1 160122Z 30019KT 17/13 A2988 RMK A01 T01690132  RH  079%=      5-min Rain = 0
KBR1 160123Z 30019G24KT 17/13 A2988 RMK A01 T01700132  RH  078%=      5-min Rain = 0.01
KBR1 160124Z 31016KT 17/13 A2987 RMK A01 T01710133  RH  078%=      5-min Rain = 0
KBR1 160125Z 32017KT 17/13 A2986 RMK A01 T01710132  RH  078%=      5-min Rain = 0.01
KBR1 160126Z 31011KT 17/13 A2986 RMK A01 T01720131  RH  077%=      5-min Rain = 0
KBR1 160127Z 31006KT 17/14 A2986 RMK A01 T01730135  RH  078%=      5-min Rain = 0
KBR1 160128Z 32003KT 17/13 A2985 RMK A01 T01710134  RH  079%=      5-min Rain = 0
KBR1 160129Z 31003KT 17/14 A2986 RMK A01 T01710136  RH  080%=      5-min Rain = 0
KBR1 160130Z 31004KT 17/13 A2987 RMK A01 T01700134  RH  079%=      5-min Rain = 0.01
KBR1 160131Z 34001KT 17/13 A2987 RMK A01 T01710134  RH  079%=      5-min Rain = 0
KBR1 160132Z 10001KT 17/13 A2988 RMK A01 T01720129  RH  075%=      5-min Rain = 0
KBR1 160133Z 11004KT 18/13 A2989 RMK A01 T01760127  RH  073%=      5-min Rain = 0
KBR1 160134Z 13005KT 18/13 A2989 RMK A01 T01800125  RH  071%=      5-min Rain = 0
KBR1 160135Z 17010KT 18/14 A2989 RMK A01 T01810137  RH  075%=      5-min Rain = 0
KBR1 160136Z 16007KT 18/14 A2989 RMK A01 T01780135  RH  076%=      5-min Rain = 0
KBR1 160137Z 20004KT 18/13 A2989 RMK A01 T01770128  RH  073%=      5-min Rain = 0
KBR1 160138Z 25004KT 18/13 A299 RMK A01 T01790125  RH  071%=      5-min Rain = 0
KBR1 160139Z 28009G14KT 18/13 A2991 RMK A01 T01800129  RH  072%=      5-min Rain = 0
KBR1 160140Z 28009KT 18/13 A2991 RMK A01 T01790132  RH  074%=      5-min Rain = 0
KBR1 160141Z 28006KT 18/12 A2991 RMK A01 T01790123  RH  069%=      5-min Rain = 0
KBR1 160142Z 27006KT 19/10 A2991 RMK A01 T01860103  RH  059%=      5-min Rain = 0
KBR1 160143Z 31006KT 19/11 A2991 RMK A01 T01930114  RH  061%=      5-min Rain = 0
KBR1 160144Z 29005KT 20/11 A2991 RMK A01 T01950112  RH  059%=      5-min Rain = 0
KBR1 160145Z 28005KT 20/12 A2991 RMK A01 T01950121  RH  062%=      5-min Rain = 0
KBR1 160146Z 29006KT 19/13 A2991 RMK A01 T01920128  RH  066%=      5-min Rain = 0
KBR1 160147Z 30008KT 19/13 A2992 RMK A01 T01880129  RH  068%=      5-min Rain = 0
KBR1 160148Z 30011KT 19/12 A2993 RMK A01 T01880119  RH  064%=      5-min Rain = 0
KBR1 160149Z 31010KT 19/12 A2993 RMK A01 T01920115  RH  061%=      5-min Rain = 0
KBR1 160150Z 33009KT 19/12 A2993 RMK A01 T01940118  RH  061%=      5-min Rain = 0
KBR1 160151Z 34009KT 19/12 A2993 RMK A01 T01940122  RH  063%=      5-min Rain = 0
KBR1 160152Z 34009KT 19/11 A2993 RMK A01 T01940114  RH  060%=      5-min Rain = 0
KBR1 160153Z 35009KT 20/12 A2993 RMK A01 T01950117  RH  060%=      5-min Rain = 0
KBR1 160154Z 34009KT 20/11 A2993 RMK A01 T01970106  RH  056%=      5-min Rain = 0
KBR1 160155Z 00010KT 20/11 A2993 RMK A01 T02000108  RH  055%=      5-min Rain = 0
KBR1 160156Z 36011KT 20/11 A2993 RMK A01 T02010110  RH  055%=      5-min Rain = 0
KBR1 160157Z 00013KT 20/11 A2993 RMK A01 T02020106  RH  054%=      5-min Rain = 0
KBR1 160158Z 00013G18KT 20/11 A2993 RMK A01 T02020112  RH  056%=      5-min Rain = 0
KBR1 160159Z 35013G18KT 20/12 A2993 RMK A01 T02010117  RH  058%=      5-min Rain = 0
KBR1 160200Z 35014KT 20/11 A2993 RMK A01 T01990111  RH  057%=      5-min Rain = 0
KBR1 160201Z 36015KT 20/11 A2994 RMK A01 T01990108  RH  056%=      5-min Rain = 0
KBR1 160202Z 36015KT 20/11 A2994 RMK A01 T01990108  RH  056%=      5-min Rain = 0
KBR1 160203Z 36016KT 20/11 A2994 RMK A01 T01990107  RH  055%=      5-min Rain = 0
KBR1 160204Z 01015KT 20/11 A2994 RMK A01 T01990111  RH  057%=      5-min Rain = 0
KBR1 160205Z 01015KT 20/11 A2994 RMK A01 T01970111  RH  058%=      5-min Rain = 0
KBR1 160206Z 02014KT 20/11 A2994 RMK A01 T01950110  RH  058%=      5-min Rain = 0
KBR1 160207Z 02013KT 19/11 A2994 RMK A01 T01940111  RH  058%=      5-min Rain = 0
KBR1 160208Z 04012KT 19/11 A2995 RMK A01 T01930111  RH  059%=      5-min Rain = 0
KBR1 160209Z 05012KT 19/11 A2995 RMK A01 T01930111  RH  059%=      5-min Rain = 0
KBR1 160210Z 07011KT 19/12 A2995 RMK A01 T01920116  RH  061%=      5-min Rain = 0
KBR1 160211Z 09012KT 19/12 A2995 RMK A01 T01900115  RH  062%=      5-min Rain = 0
KBR1 160212Z 10013KT 19/12 A2995 RMK A01 T01890117  RH  063%=      5-min Rain = 0
KBR1 160213Z 11010KT 19/12 A2995 RMK A01 T01880122  RH  065%=      5-min Rain = 0
KBR1 160214Z 10012KT 19/12 A2995 RMK A01 T01850124  RH  068%=      5-min Rain = 0
KBR1 160215Z 10013KT 18/12 A2995 RMK A01 T01820124  RH  069%=      5-min Rain = 0
KBR1 160216Z 11015KT 18/12 A2995 RMK A01 T01770123  RH  070%=      5-min Rain = 0
KBR1 160217Z 11016KT 18/12 A2995 RMK A01 T01750123  RH  071%=      5-min Rain = 0
KBR1 160218Z 11014KT 17/12 A2995 RMK A01 T01740124  RH  072%=      5-min Rain = 0
KBR1 160219Z 11016KT 17/13 A2995 RMK A01 T01720127  RH  075%=      5-min Rain = 0
KBR1 160220Z 11016KT 17/13 A2995 RMK A01 T01710126  RH  075%=      5-min Rain = 0
KBR1 160221Z 11017KT 17/13 A2995 RMK A01 T01710125  RH  074%=      5-min Rain = 0
KBR1 160222Z 11016KT 17/12 A2995 RMK A01 T01720123  RH  073%=      5-min Rain = 0
KBR1 160223Z 10014KT 18/12 A2995 RMK A01 T01760118  RH  069%=      5-min Rain = 0
KBR1 160224Z 09013KT 18/11 A2996 RMK A01 T01820113  RH  064%=      5-min Rain = 0
KBR1 160225Z 08012KT 19/11 A2996 RMK A01 T01860111  RH  062%=      5-min Rain = 0
KBR1 160226Z 07011KT 19/11 A2995 RMK A01 T01900110  RH  060%=      5-min Rain = 0
KBR1 160227Z 06011KT 19/11 A2995 RMK A01 T01900113  RH  061%=      5-min Rain = 0
KBR1 160228Z 04012KT 19/11 A2995 RMK A01 T01900107  RH  058%=      5-min Rain = 0
KBR1 160229Z 03011KT 19/11 A2994 RMK A01 T01910111  RH  060%=      5-min Rain = 0
KBR1 160230Z 03011KT 19/11 A2994 RMK A01 T01910112  RH  060%=      5-min Rain = 0
KBR1 160231Z 03013KT 19/11 A2994 RMK A01 T01900112  RH  060%=      5-min Rain = 0
KBR1 160232Z 03015KT 19/11 A2993 RMK A01 T01910107  RH  058%=      5-min Rain = 0
KBR1 160233Z 03014KT 19/11 A2994 RMK A01 T01920109  RH  059%=      5-min Rain = 0
KBR1 160234Z 02013KT 19/11 A2993 RMK A01 T01930109  RH  058%=      5-min Rain = 0
KBR1 160235Z 03014KT 19/11 A2993 RMK A01 T01930108  RH  058%=      5-min Rain = 0
KBR1 160236Z 03014KT 19/11 A2993 RMK A01 T01940107  RH  057%=      5-min Rain = 0
KBR1 160237Z 03015KT 19/11 A2993 RMK A01 T01940106  RH  057%=      5-min Rain = 0
KBR1 160238Z 03015KT 19/10 A2994 RMK A01 T01940104  RH  056%=      5-min Rain = 0
KBR1 160239Z 03014KT 20/11 A2994 RMK A01 T01950105  RH  056%=      5-min Rain = 0
KBR1 160240Z 05013KT 20/11 A2994 RMK A01 T01950108  RH  057%=      5-min Rain = 0
KBR1 160241Z 06013KT 19/11 A2994 RMK A01 T01940110  RH  058%=      5-min Rain = 0
KBR1 160242Z 05012KT 19/11 A2994 RMK A01 T01920112  RH  060%=      5-min Rain = 0
KBR1 160243Z 05013KT 19/11 A2994 RMK A01 T01900112  RH  060%=      5-min Rain = 0
KBR1 160244Z 05011KT 19/12 A2994 RMK A01 T01890116  RH  063%=      5-min Rain = 0
KBR1 160245Z 08008KT 19/12 A2994 RMK A01 T01860117  RH  064%=      5-min Rain = 0
KBR1 160246Z 09007KT 18/12 A2994 RMK A01 T01830122  RH  067%=      5-min Rain = 0
KBR1 160247Z 09008KT 18/12 A2994 RMK A01 T01800124  RH  070%=      5-min Rain = 0
KBR1 160248Z 09007KT 18/13 A2994 RMK A01 T01780127  RH  072%=      5-min Rain = 0
KBR1 160249Z 07007KT 18/13 A2994 RMK A01 T01760127  RH  073%=      5-min Rain = 0
KBR1 160250Z 05007KT 18/12 A2994 RMK A01 T01750121  RH  070%=      5-min Rain = 0
KBR1 160251Z 05005KT 18/13 A2994 RMK A01 T01760126  RH  072%=      5-min Rain = 0
KBR1 160252Z 06007KT 18/13 A2994 RMK A01 T01760127  RH  073%=      5-min Rain = 0
KBR1 160253Z 05008KT 18/12 A2994 RMK A01 T01760121  RH  070%=      5-min Rain = 0
KBR1 160254Z 05007KT 18/12 A2995 RMK A01 T01770119  RH  069%=      5-min Rain = 0
KBR1 160255Z 06007KT 18/12 A2995 RMK A01 T01790121  RH  069%=      5-min Rain = 0
KBR1 160256Z 05008KT 18/13 A2995 RMK A01 T01780126  RH  071%=      5-min Rain = 0
KBR1 160257Z 04008KT 18/13 A2995 RMK A01 T01760127  RH  073%=      5-min Rain = 0
KBR1 160258Z 03008KT 18/13 A2995 RMK A01 T01750126  RH  073%=      5-min Rain = 0
KBR1 160259Z 03009KT 18/12 A2995 RMK A01 T01750124  RH  072%=      5-min Rain = 0
KBR1 160300Z 03010KT 18/12 A2995 RMK A01 T01750124  RH  072%=      5-min Rain = 0
KBR1 160301Z 03012KT 18/12 A2995 RMK A01 T01760123  RH  071%=      5-min Rain = 0
KBR1 160302Z 03013KT 18/12 A2995 RMK A01 T01770120  RH  069%=      5-min Rain = 0
KBR1 160303Z 02013KT 18/12 A2995 RMK A01 T01790119  RH  068%=      5-min Rain = 0
KBR1 160304Z 01013KT 18/11 A2995 RMK A01 T01810114  RH  065%=      5-min Rain = 0
KBR1 160305Z 02016KT 18/11 A2995 RMK A01 T01840112  RH  063%=      5-min Rain = 0
KBR1 160306Z 02019KT 19/11 A2994 RMK A01 T01860107  RH  060%=      5-min Rain = 0
KBR1 160307Z 01018KT 19/11 A2994 RMK A01 T01890109  RH  060%=      5-min Rain = 0
KBR1 160308Z 02019KT 19/11 A2995 RMK A01 T01890111  RH  061%=      5-min Rain = 0
KBR1 160309Z 01020KT 19/11 A2995 RMK A01 T01880113  RH  062%=      5-min Rain = 0
KBR1 160310Z 01020KT 19/11 A2995 RMK A01 T01860114  RH  063%=      5-min Rain = 0
KBR1 160311Z 01019KT 19/12 A2995 RMK A01 T01850117  RH  064%=      5-min Rain = 0
KBR1 160312Z 01020KT 18/12 A2995 RMK A01 T01830117  RH  065%=      5-min Rain = 0
KBR1 160313Z 01021KT 18/12 A2995 RMK A01 T01820119  RH  066%=      5-min Rain = 0
KBR1 160314Z 36021KT 18/12 A2995 RMK A01 T01810118  RH  067%=      5-min Rain = 0
KBR1 160315Z 00018KT 18/12 A2995 RMK A01 T01810120  RH  068%=      5-min Rain = 0
KBR1 160316Z 00018KT 18/12 A2995 RMK A01 T01800121  RH  069%=      5-min Rain = 0
KBR1 160317Z 00017KT 18/12 A2995 RMK A01 T01790122  RH  069%=      5-min Rain = 0
KBR1 160318Z 01018KT 18/12 A2995 RMK A01 T01780122  RH  070%=      5-min Rain = 0
KBR1 160319Z 00019KT 18/12 A2995 RMK A01 T01770122  RH  070%=      5-min Rain = 0
KBR1 160320Z 00018KT 18/12 A2995 RMK A01 T01770123  RH  071%=      5-min Rain = 0
KBR1 160321Z 01020KT 18/12 A2995 RMK A01 T01760122  RH  071%=      5-min Rain = 0
KBR1 160322Z 01019KT 18/12 A2995 RMK A01 T01760122  RH  071%=      5-min Rain = 0
KBR1 160323Z 00016KT 18/12 A2995 RMK A01 T01750124  RH  072%=      5-min Rain = 0
KBR1 160324Z 00020KT 17/12 A2994 RMK A01 T01740123  RH  072%=      5-min Rain = 0
KBR1 160325Z 00021KT 17/12 A2994 RMK A01 T01740124  RH  072%=      5-min Rain = 0
KBR1 160326Z 00021KT 17/12 A2994 RMK A01 T01740124  RH  072%=      5-min Rain = 0
KBR1 160327Z 00022KT 17/12 A2994 RMK A01 T01740123  RH  072%=      5-min Rain = 0
KBR1 160328Z 01021KT 17/12 A2994 RMK A01 T01730124  RH  073%=      5-min Rain = 0
KBR1 160329Z 01023G28KT 17/12 A2994 RMK A01 T01730124  RH  073%=      5-min Rain = 0
KBR1 160330Z 01027KT 17/12 A2993 RMK A01 T01720124  RH  073%=      5-min Rain = 0
KBR1 160331Z 01028KT 17/12 A2993 RMK A01 T01720122  RH  072%=      5-min Rain = 0
KBR1 160332Z 01026G31KT 17/12 A2993 RMK A01 T01720120  RH  071%=      5-min Rain = 0
KBR1 160333Z 01022G27KT 17/12 A2994 RMK A01 T01730123  RH  072%=      5-min Rain = 0
KBR1 160334Z 01024KT 17/12 A2994 RMK A01 T01720122  RH  072%=      5-min Rain = 0
KBR1 160335Z 01024KT 17/12 A2994 RMK A01 T01730122  RH  072%=      5-min Rain = 0
KBR1 160336Z 01024KT 17/12 A2994 RMK A01 T01720123  RH  073%=      5-min Rain = 0
KBR1 160337Z 01025KT 17/12 A2994 RMK A01 T01720123  RH  073%=      5-min Rain = 0
KBR1 160338Z 01026G31KT 17/12 A2994 RMK A01 T01720121  RH  072%=      5-min Rain = 0
KBR1 160339Z 01026G32KT 17/12 A2994 RMK A01 T01720122  RH  072%=      5-min Rain = 0
KBR1 160340Z 01027KT 17/12 A2994 RMK A01 T01720120  RH  072%=      5-min Rain = 0
KBR1 160341Z 01026KT 17/12 A2994 RMK A01 T01720121  RH  072%=      5-min Rain = 0
KBR1 160342Z 01023KT 17/12 A2995 RMK A01 T01720122  RH  072%=      5-min Rain = 0
KBR1 160343Z 01022KT 17/12 A2995 RMK A01 T01710121  RH  072%=      5-min Rain = 0
KBR1 160344Z 01021KT 17/12 A2995 RMK A01 T01710122  RH  073%=      5-min Rain = 0
KBR1 160345Z 01021KT 17/12 A2995 RMK A01 T01710123  RH  073%=      5-min Rain = 0
KBR1 160346Z 02020KT 17/12 A2995 RMK A01 T01710122  RH  073%=      5-min Rain = 0
KBR1 160347Z 02022KT 17/12 A2994 RMK A01 T01700123  RH  074%=      5-min Rain = 0
KBR1 160348Z 01024G29KT 17/12 A2994 RMK A01 T01700123  RH  074%=      5-min Rain = 0
KBR1 160349Z 01020KT 17/12 A2994 RMK A01 T01690123  RH  074%=      5-min Rain = 0
KBR1 160350Z 01021G26KT 17/12 A2994 RMK A01 T01690124  RH  075%=      5-min Rain = 0
KBR1 160351Z 01022KT 17/12 A2994 RMK A01 T01690124  RH  075%=      5-min Rain = 0
KBR1 160352Z 02022KT 17/12 A2994 RMK A01 T01690123  RH  074%=      5-min Rain = 0
KBR1 160353Z 02021KT 17/12 A2993 RMK A01 T01690124  RH  075%=      5-min Rain = 0
KBR1 160354Z 02020KT 17/13 A2993 RMK A01 T01690125  RH  075%=      5-min Rain = 0
KBR1 160355Z 02018KT 17/13 A2994 RMK A01 T01690125  RH  075%=      5-min Rain = 0
KBR1 160356Z 02020KT 17/13 A2993 RMK A01 T01680125  RH  075%=      5-min Rain = 0
KBR1 160357Z 02019G24KT 17/12 A2994 RMK A01 T01680123  RH  075%=      5-min Rain = 0
KBR1 160358Z 02019KT 17/12 A2994 RMK A01 T01680124  RH  075%=      5-min Rain = 0
KBR1 160359Z 01018G23KT 17/12 A2994 RMK A01 T01680123  RH  075%=      5-min Rain = 0
KBR1 160400Z 01020KT 17/12 A2994 RMK A01 T01680123  RH  075%=      5-min Rain = 0
KBR1 160401Z 02022G27KT 17/12 A2993 RMK A01 T01680124  RH  075%=      5-min Rain = 0
KBR1 160402Z 02027KT 17/12 A2993 RMK A01 T01680123  RH  075%=      5-min Rain = 0
KBR1 160403Z 02024KT 17/12 A2994 RMK A01 T01680124  RH  075%=      5-min Rain = 0
KBR1 160404Z 02019KT 17/13 A2994 RMK A01 T01680125  RH  076%=      5-min Rain = 0
KBR1 160405Z 02016KT 17/13 A2994 RMK A01 T01680125  RH  076%=      5-min Rain = 0
KBR1 160406Z 02016KT 17/13 A2994 RMK A01 T01670125  RH  076%=      5-min Rain = 0
KBR1 160407Z 02018KT 17/13 A2994 RMK A01 T01670126  RH  077%=      5-min Rain = 0
KBR1 160408Z 02018G23KT 17/13 A2994 RMK A01 T01660125  RH  077%=      5-min Rain = 0
KBR1 160409Z 02022G28KT 17/13 A2994 RMK A01 T01660126  RH  077%=      5-min Rain = 0
KBR1 160410Z 01022KT 17/13 A2994 RMK A01 T01660126  RH  077%=      5-min Rain = 0
KBR1 160411Z 02027KT 17/13 A2994 RMK A01 T01650125  RH  077%=      5-min Rain = 0
KBR1 160412Z 02024G31KT 17/12 A2993 RMK A01 T01660123  RH  076%=      5-min Rain = 0
KBR1 160413Z 01022KT 17/13 A2994 RMK A01 T01660125  RH  076%=      5-min Rain = 0
KBR1 160414Z 01023KT 17/13 A2994 RMK A01 T01660125  RH  076%=      5-min Rain = 0
KBR1 160415Z 01025KT 17/12 A2993 RMK A01 T01660124  RH  076%=      5-min Rain = 0
KBR1 160416Z 01027G33KT 17/12 A2992 RMK A01 T01660124  RH  076%=      5-min Rain = 0
KBR1 160417Z 01028KT 17/12 A2992 RMK A01 T01660124  RH  076%=      5-min Rain = 0
KBR1 160418Z 01029G34KT 17/12 A2992 RMK A01 T01660124  RH  076%=      5-min Rain = 0
KBR1 160419Z 01029KT 17/12 A2992 RMK A01 T01660123  RH  076%=      5-min Rain = 0
KBR1 160420Z 01027KT 17/13 A2992 RMK A01 T01670125  RH  076%=      5-min Rain = 0
KBR1 160421Z 01029G35KT 17/13 A2992 RMK A01 T01660125  RH  076%=      5-min Rain = 0
KBR1 160422Z 01028KT 17/13 A2993 RMK A01 T01660125  RH  077%=      5-min Rain = 0
KBR1 160423Z 01027G34KT 17/13 A2993 RMK A01 T01660125  RH  077%=      5-min Rain = 0
KBR1 160424Z 01029G35KT 17/12 A2993 RMK A01 T01660124  RH  076%=      5-min Rain = 0
KBR1 160425Z 01029KT 17/13 A2993 RMK A01 T01660125  RH  077%=      5-min Rain = 0
KBR1 160426Z 01026G31KT 17/13 A2993 RMK A01 T01660125  RH  077%=      5-min Rain = 0
KBR1 160427Z 01028KT 17/13 A2993 RMK A01 T01650125  RH  077%=      5-min Rain = 0
KBR1 160428Z 01027G33KT 17/13 A2993 RMK A01 T01650125  RH  077%=      5-min Rain = 0
KBR1 160429Z 01027KT 17/13 A2993 RMK A01 T01650125  RH  077%=      5-min Rain = 0
KBR1 160430Z 01025KT 16/13 A2993 RMK A01 T01640125  RH  078%=      5-min Rain = 0
KBR1 160431Z 01022G30KT 16/13 A2993 RMK A01 T01640126  RH  078%=      5-min Rain = 0
KBR1 160432Z 01025G36KT 16/13 A2993 RMK A01 T01640126  RH  079%=      5-min Rain = 0
KBR1 160433Z 01026KT 16/13 A2993 RMK A01 T01640126  RH  078%=      5-min Rain = 0
KBR1 160434Z 01026KT 16/13 A2993 RMK A01 T01640126  RH  078%=      5-min Rain = 0
KBR1 160435Z 01027G33KT 16/13 A2993 RMK A01 T01640125  RH  078%=      5-min Rain = 0
KBR1 160436Z 01027G33KT 16/13 A2992 RMK A01 T01640125  RH  078%=      5-min Rain = 0
KBR1 160437Z 01033KT 16/12 A2992 RMK A01 T01640124  RH  077%=      5-min Rain = 0
KBR1 160438Z 01028G33KT 17/12 A2992 RMK A01 T01650123  RH  077%=      5-min Rain = 0
KBR1 160439Z 01025G32KT 17/13 A2992 RMK A01 T01650125  RH  077%=      5-min Rain = 0
KBR1 160440Z 00029G36KT 17/13 A2992 RMK A01 T01650125  RH  077%=      5-min Rain = 0
KBR1 160441Z 01027KT 17/13 A2992 RMK A01 T01650125  RH  077%=      5-min Rain = 0
KBR1 160442Z 01024G34KT 17/13 A2992 RMK A01 T01650126  RH  078%=      5-min Rain = 0
KBR1 160443Z 01023KT 17/13 A2992 RMK A01 T01650126  RH  078%=      5-min Rain = 0
KBR1 160444Z 00025KT 16/13 A2992 RMK A01 T01640125  RH  078%=      5-min Rain = 0
KBR1 160445Z 01025G31KT 16/12 A2992 RMK A01 T01640124  RH  077%=      5-min Rain = 0
KBR1 160446Z 01026G31KT 17/12 A2992 RMK A01 T01660124  RH  076%=      5-min Rain = 0
KBR1 160447Z 00029G34KT 17/12 A2992 RMK A01 T01660124  RH  076%=      5-min Rain = 0
KBR1 160448Z 01028G33KT 17/12 A2992 RMK A01 T01670122  RH  075%=      5-min Rain = 0
KBR1 160449Z 01026G31KT 17/12 A2992 RMK A01 T01670123  RH  075%=      5-min Rain = 0
KBR1 160450Z 01025KT 17/12 A2992 RMK A01 T01670122  RH  075%=      5-min Rain = 0
KBR1 160451Z 01025KT 17/12 A2992 RMK A01 T01670122  RH  075%=      5-min Rain = 0
KBR1 160452Z 02021KT 17/12 A2992 RMK A01 T01670122  RH  075%=      5-min Rain = 0
KBR1 160453Z 02023KT 17/12 A2992 RMK A01 T01670123  RH  075%=      5-min Rain = 0
KBR1 160454Z 02020G25KT 17/12 A2992 RMK A01 T01670122  RH  075%=      5-min Rain = 0
KBR1 160455Z 02018G25KT 17/12 A2992 RMK A01 T01670123  RH  075%=      5-min Rain = 0
KBR1 160456Z 02019KT 17/12 A2992 RMK A01 T01660122  RH  075%=      5-min Rain = 0
KBR1 160457Z 02019KT 17/12 A2992 RMK A01 T01670119  RH  073%=      5-min Rain = 0
KBR1 160458Z 02020KT 17/12 A2992 RMK A01 T01690119  RH  072%=      5-min Rain = 0
KBR1 160459Z 01020G27KT 17/12 A2992 RMK A01 T01700119  RH  072%=      5-min Rain = 0

Page generated in 0.2 seconds.